Observation data for Sierra Blanca on 01/12/2018      Previous  Date  Next       Current Mesonet Observations  Soil Data  Daily Summary Page  Observations in Plain Language
KSB1 120600Z 20001KT 03/M04 A3029 RMK A01 T00251039  RH  063%=      5-min Rain = 0
KSB1 120601Z 20001KT 03/M04 A3029 RMK A01 T00251039  RH  063%=      5-min Rain = 0
KSB1 120602Z 18001KT 03/M04 A3029 RMK A01 T00251039  RH  063%=      5-min Rain = 0
KSB1 120603Z 19002KT 03/M04 A3029 RMK A01 T00251038  RH  063%=      5-min Rain = 0
KSB1 120604Z 18001KT 03/M04 A3029 RMK A01 T00251038  RH  063%=      5-min Rain = 0
KSB1 120605Z 18001KT 03/M04 A3029 RMK A01 T00251039  RH  063%=      5-min Rain = 0
KSB1 120606Z 17001KT 03/M04 A3029 RMK A01 T00251038  RH  063%=      5-min Rain = 0
KSB1 120607Z 18001KT 03/M04 A3029 RMK A01 T00251038  RH  063%=      5-min Rain = 0
KSB1 120608Z 19001KT 03/M04 A3029 RMK A01 T00251038  RH  063%=      5-min Rain = 0
KSB1 120609Z 20002KT 03/M04 A3029 RMK A01 T00251038  RH  063%=      5-min Rain = 0
KSB1 120610Z 20002KT 03/M04 A3029 RMK A01 T00251038  RH  063%=      5-min Rain = 0
KSB1 120611Z 23002KT 03/M04 A3029 RMK A01 T00261037  RH  063%=      5-min Rain = 0
KSB1 120612Z 22002KT 03/M04 A3029 RMK A01 T00261038  RH  063%=      5-min Rain = 0
KSB1 120613Z 20002KT 03/M04 A3029 RMK A01 T00251038  RH  063%=      5-min Rain = 0
KSB1 120614Z 18002KT 03/M04 A3029 RMK A01 T00251038  RH  063%=      5-min Rain = 0
KSB1 120615Z 20002KT 03/M04 A3029 RMK A01 T00251038  RH  063%=      5-min Rain = 0
KSB1 120616Z 20002KT 02/M04 A3029 RMK A01 T00241038  RH  063%=      5-min Rain = 0
KSB1 120617Z 20003KT 03/M04 A3029 RMK A01 T00251037  RH  063%=      5-min Rain = 0
KSB1 120618Z 20002KT 03/M04 A3029 RMK A01 T00261037  RH  063%=      5-min Rain = 0
KSB1 120619Z 20002KT 03/M04 A3029 RMK A01 T00261037  RH  063%=      5-min Rain = 0
KSB1 120620Z 20003KT 03/M04 A3029 RMK A01 T00261037  RH  063%=      5-min Rain = 0
KSB1 120621Z 21003KT 03/M04 A3029 RMK A01 T00271037  RH  063%=      5-min Rain = 0
KSB1 120622Z 20003KT 03/M04 A3029 RMK A01 T00271037  RH  063%=      5-min Rain = 0
KSB1 120623Z 21002KT 03/M04 A3029 RMK A01 T00271037  RH  063%=      5-min Rain = 0
KSB1 120624Z 22002KT 03/M04 A3029 RMK A01 T00271037  RH  063%=      5-min Rain = 0
KSB1 120625Z 20001KT 03/M04 A3029 RMK A01 T00261038  RH  063%=      5-min Rain = 0
KSB1 120626Z 21001KT 03/M04 A3029 RMK A01 T00261038  RH  063%=      5-min Rain = 0
KSB1 120627Z 20002KT 03/M04 A3029 RMK A01 T00251038  RH  063%=      5-min Rain = 0
KSB1 120628Z 19002KT 03/M04 A3029 RMK A01 T00261037  RH  063%=      5-min Rain = 0
KSB1 120629Z 19002KT 03/M04 A3029 RMK A01 T00271037  RH  063%=      5-min Rain = 0
KSB1 120630Z 20002KT 03/M04 A3029 RMK A01 T00271037  RH  063%=      5-min Rain = 0
KSB1 120631Z 20002KT 03/M04 A3029 RMK A01 T00271037  RH  063%=      5-min Rain = 0
KSB1 120632Z 19001KT 03/M04 A3029 RMK A01 T00271037  RH  063%=      5-min Rain = 0
KSB1 120633Z 20001KT 03/M04 A3029 RMK A01 T00271037  RH  063%=      5-min Rain = 0
KSB1 120634Z 20001KT 03/M04 A3029 RMK A01 T00271037  RH  063%=      5-min Rain = 0
KSB1 120635Z 20002KT 03/M04 A3029 RMK A01 T00271037  RH  063%=      5-min Rain = 0
KSB1 120636Z 19002KT 03/M04 A3029 RMK A01 T00281037  RH  062%=      5-min Rain = 0
KSB1 120637Z 18002KT 03/M04 A3029 RMK A01 T00281037  RH  062%=      5-min Rain = 0
KSB1 120638Z 18002KT 03/M04 A3029 RMK A01 T00271038  RH  062%=      5-min Rain = 0
KSB1 120639Z 18002KT 03/M04 A3029 RMK A01 T00271037  RH  063%=      5-min Rain = 0
KSB1 120640Z 19002KT 03/M04 A3029 RMK A01 T00271037  RH  063%=      5-min Rain = 0
KSB1 120641Z 18002KT 03/M04 A3028 RMK A01 T00271037  RH  063%=      5-min Rain = 0
KSB1 120642Z 17002KT 03/M04 A3028 RMK A01 T00271038  RH  063%=      5-min Rain = 0
KSB1 120643Z 17002KT 03/M04 A3028 RMK A01 T00271037  RH  063%=      5-min Rain = 0
KSB1 120644Z 17002KT 03/M04 A3028 RMK A01 T00271037  RH  063%=      5-min Rain = 0
KSB1 120645Z 17002KT 03/M04 A3028 RMK A01 T00271037  RH  063%=      5-min Rain = 0
KSB1 120646Z 17002KT 03/M04 A3028 RMK A01 T00271037  RH  062%=      5-min Rain = 0
KSB1 120647Z 18003KT 03/M04 A3028 RMK A01 T00281037  RH  062%=      5-min Rain = 0
KSB1 120648Z 18002KT 03/M04 A3028 RMK A01 T00271037  RH  062%=      5-min Rain = 0
KSB1 120649Z 18002KT 03/M04 A3028 RMK A01 T00271038  RH  062%=      5-min Rain = 0
KSB1 120650Z 19002KT 03/M04 A3028 RMK A01 T00261038  RH  063%=      5-min Rain = 0
KSB1 120651Z 19002KT 03/M04 A3028 RMK A01 T00261038  RH  063%=      5-min Rain = 0
KSB1 120652Z 19002KT 03/M04 A3028 RMK A01 T00261037  RH  063%=      5-min Rain = 0
KSB1 120653Z 19002KT 03/M04 A3028 RMK A01 T00261037  RH  063%=      5-min Rain = 0
KSB1 120654Z 19002KT 03/M04 A3028 RMK A01 T00271037  RH  063%=      5-min Rain = 0
KSB1 120655Z 19002KT 03/M04 A3028 RMK A01 T00261037  RH  063%=      5-min Rain = 0
KSB1 120656Z 20002KT 03/M04 A3028 RMK A01 T00261037  RH  063%=      5-min Rain = 0
KSB1 120657Z 20001KT 03/M04 A3029 RMK A01 T00261037  RH  063%=      5-min Rain = 0
KSB1 120658Z 19001KT 03/M04 A3029 RMK A01 T00261038  RH  063%=      5-min Rain = 0
KSB1 120659Z 21001KT 03/M04 A3029 RMK A01 T00251038  RH  063%=      5-min Rain = 0
KSB1 120700Z 22001KT 03/M04 A3029 RMK A01 T00251037  RH  063%=      5-min Rain = 0
KSB1 120701Z 20001KT 03/M04 A3029 RMK A01 T00251037  RH  064%=      5-min Rain = 0
KSB1 120702Z 21001KT 03/M04 A3029 RMK A01 T00261037  RH  063%=      5-min Rain = 0
KSB1 120703Z 21002KT 03/M04 A3029 RMK A01 T00261037  RH  063%=      5-min Rain = 0
KSB1 120704Z 23002KT 03/M04 A3029 RMK A01 T00271036  RH  063%=      5-min Rain = 0
KSB1 120705Z 22002KT 03/M04 A3029 RMK A01 T00271037  RH  063%=      5-min Rain = 0
KSB1 120706Z 21001KT 03/M04 A3029 RMK A01 T00271036  RH  063%=      5-min Rain = 0
KSB1 120707Z 20001KT 03/M04 A3029 RMK A01 T00271036  RH  063%=      5-min Rain = 0
KSB1 120708Z 21001KT 03/M04 A3029 RMK A01 T00281036  RH  063%=      5-min Rain = 0
KSB1 120709Z 20001KT 03/M04 A3029 RMK A01 T00281036  RH  063%=      5-min Rain = 0
KSB1 120710Z 17001KT 03/M04 A3029 RMK A01 T00281036  RH  063%=      5-min Rain = 0
KSB1 120711Z 17001KT 03/M04 A3029 RMK A01 T00291036  RH  062%=      5-min Rain = 0
KSB1 120712Z 17002KT 03/M04 A3029 RMK A01 T00301036  RH  062%=      5-min Rain = 0
KSB1 120713Z 19002KT 03/M04 A3029 RMK A01 T00301037  RH  062%=      5-min Rain = 0
KSB1 120714Z 19002KT 03/M04 A3029 RMK A01 T00301037  RH  061%=      5-min Rain = 0
KSB1 120715Z 20002KT 03/M04 A3029 RMK A01 T00301037  RH  061%=      5-min Rain = 0
KSB1 120716Z 18002KT 03/M04 A3029 RMK A01 T00301037  RH  062%=      5-min Rain = 0
KSB1 120717Z 18001KT 03/M04 A3029 RMK A01 T00301037  RH  062%=      5-min Rain = 0
KSB1 120718Z 18001KT 03/M04 A3029 RMK A01 T00301037  RH  061%=      5-min Rain = 0
KSB1 120719Z 19001KT 03/M04 A3028 RMK A01 T00301037  RH  061%=      5-min Rain = 0
KSB1 120720Z 20001KT 03/M04 A3028 RMK A01 T00301037  RH  061%=      5-min Rain = 0
KSB1 120721Z 20001KT 03/M04 A3028 RMK A01 T00301037  RH  062%=      5-min Rain = 0
KSB1 120722Z 19001KT 03/M04 A3028 RMK A01 T00301037  RH  062%=      5-min Rain = 0
KSB1 120723Z 18001KT 03/M04 A3028 RMK A01 T00301037  RH  062%=      5-min Rain = 0
KSB1 120724Z 20001KT 03/M04 A3028 RMK A01 T00301037  RH  062%=      5-min Rain = 0
KSB1 120725Z 21001KT 03/M04 A3028 RMK A01 T00301036  RH  062%=      5-min Rain = 0
KSB1 120726Z 23001KT 03/M04 A3028 RMK A01 T00301036  RH  062%=      5-min Rain = 0
KSB1 120727Z 24001KT 03/M04 A3028 RMK A01 T00301036  RH  062%=      5-min Rain = 0
KSB1 120728Z 25001KT 03/M04 A3028 RMK A01 T00301036  RH  062%=      5-min Rain = 0
KSB1 120729Z 23001KT 03/M04 A3028 RMK A01 T00301036  RH  062%=      5-min Rain = 0
KSB1 120730Z 21001KT 03/M04 A3028 RMK A01 T00291037  RH  062%=      5-min Rain = 0
KSB1 120731Z 21001KT 03/M04 A3028 RMK A01 T00291037  RH  062%=      5-min Rain = 0
KSB1 120732Z 23001KT 03/M04 A3028 RMK A01 T00291037  RH  062%=      5-min Rain = 0
KSB1 120733Z 24002KT 03/M04 A3028 RMK A01 T00291037  RH  062%=      5-min Rain = 0
KSB1 120734Z 23001KT 03/M04 A3028 RMK A01 T00281038  RH  062%=      5-min Rain = 0
KSB1 120735Z 21001KT 03/M04 A3028 RMK A01 T00271037  RH  062%=      5-min Rain = 0
KSB1 120736Z 20001KT 03/M04 A3028 RMK A01 T00271037  RH  063%=      5-min Rain = 0
KSB1 120737Z 20001KT 03/M04 A3028 RMK A01 T00271038  RH  063%=      5-min Rain = 0
KSB1 120738Z 20001KT 03/M04 A3028 RMK A01 T00271038  RH  062%=      5-min Rain = 0
KSB1 120739Z 20001KT 03/M04 A3028 RMK A01 T00271038  RH  062%=      5-min Rain = 0
KSB1 120740Z 20000KT 03/M04 A3028 RMK A01 T00271038  RH  062%=      5-min Rain = 0
KSB1 120741Z 19000KT 03/M04 A3028 RMK A01 T00271038  RH  062%=      5-min Rain = 0
KSB1 120742Z 18001KT 03/M04 A3028 RMK A01 T00271037  RH  062%=      5-min Rain = 0
KSB1 120743Z 20001KT 03/M04 A3028 RMK A01 T00281037  RH  062%=      5-min Rain = 0
KSB1 120744Z 19000KT 03/M04 A3028 RMK A01 T00291037  RH  062%=      5-min Rain = 0
KSB1 120745Z 20000KT 03/M04 A3028 RMK A01 T00291037  RH  062%=      5-min Rain = 0
KSB1 120746Z 17001KT 03/M04 A3028 RMK A01 T00291037  RH  062%=      5-min Rain = 0
KSB1 120747Z 18000KT 03/M04 A3028 RMK A01 T00291037  RH  062%=      5-min Rain = 0
KSB1 120748Z 19001KT 03/M04 A3028 RMK A01 T00291037  RH  062%=      5-min Rain = 0
KSB1 120749Z 23001KT 03/M04 A3028 RMK A01 T00291037  RH  062%=      5-min Rain = 0
KSB1 120750Z 24001KT 03/M04 A3028 RMK A01 T00301037  RH  062%=      5-min Rain = 0
KSB1 120751Z 25001KT 03/M04 A3028 RMK A01 T00301036  RH  062%=      5-min Rain = 0
KSB1 120752Z 23001KT 03/M04 A3028 RMK A01 T00301036  RH  062%=      5-min Rain = 0
KSB1 120753Z 24001KT 03/M04 A3028 RMK A01 T00301036  RH  062%=      5-min Rain = 0
KSB1 120754Z 24001KT 03/M04 A3027 RMK A01 T00301036  RH  062%=      5-min Rain = 0
KSB1 120755Z 24002KT 03/M04 A3027 RMK A01 T00301036  RH  062%=      5-min Rain = 0
KSB1 120756Z 23002KT 03/M04 A3027 RMK A01 T00301036  RH  062%=      5-min Rain = 0
KSB1 120757Z 22002KT 03/M04 A3027 RMK A01 T00301036  RH  062%=      5-min Rain = 0
KSB1 120758Z 23002KT 03/M04 A3027 RMK A01 T00301037  RH  062%=      5-min Rain = 0
KSB1 120759Z 23002KT 03/M04 A3027 RMK A01 T00291037  RH  062%=      5-min Rain = 0
KSB1 120800Z 23002KT 03/M04 A3028 RMK A01 T00291037  RH  062%=      5-min Rain = 0
KSB1 120801Z 23002KT 03/M04 A3028 RMK A01 T00271037  RH  062%=      5-min Rain = 0
KSB1 120802Z 24002KT 03/M04 A3028 RMK A01 T00261037  RH  063%=      5-min Rain = 0
KSB1 120803Z 23002KT 03/M04 A3028 RMK A01 T00261037  RH  063%=      5-min Rain = 0
KSB1 120804Z 22002KT 03/M04 A3027 RMK A01 T00251037  RH  064%=      5-min Rain = 0
KSB1 120805Z 22002KT 03/M04 A3027 RMK A01 T00251037  RH  064%=      5-min Rain = 0
KSB1 120806Z 23002KT 03/M04 A3027 RMK A01 T00251037  RH  064%=      5-min Rain = 0
KSB1 120807Z 21001KT 03/M04 A3027 RMK A01 T00251037  RH  064%=      5-min Rain = 0
KSB1 120808Z 21001KT 03/M04 A3027 RMK A01 T00261037  RH  063%=      5-min Rain = 0
KSB1 120809Z 21000KT 03/M04 A3027 RMK A01 T00271036  RH  063%=      5-min Rain = 0
KSB1 120810Z 26000KT 03/M04 A3027 RMK A01 T00281036  RH  063%=      5-min Rain = 0
KSB1 120811Z 26000KT 03/M04 A3027 RMK A01 T00291036  RH  062%=      5-min Rain = 0
KSB1 120812Z 26001KT 03/M04 A3027 RMK A01 T00291036  RH  062%=      5-min Rain = 0
KSB1 120813Z 26000KT 03/M04 A3027 RMK A01 T00291037  RH  062%=      5-min Rain = 0
KSB1 120814Z 24000KT 03/M04 A3027 RMK A01 T00291036  RH  062%=      5-min Rain = 0
KSB1 120815Z 22001KT 03/M04 A3027 RMK A01 T00291036  RH  062%=      5-min Rain = 0
KSB1 120816Z 22001KT 03/M04 A3027 RMK A01 T00291036  RH  062%=      5-min Rain = 0
KSB1 120817Z 22000KT 03/M04 A3027 RMK A01 T00301036  RH  062%=      5-min Rain = 0
KSB1 120818Z 00000KT 03/M04 A3027 RMK A01 T00301036  RH  062%=      5-min Rain = 0
KSB1 120819Z 00000KT 03/M04 A3027 RMK A01 T00301036  RH  062%=      5-min Rain = 0
KSB1 120820Z 00000KT 03/M04 A3027 RMK A01 T00311035  RH  062%=      5-min Rain = 0
KSB1 120821Z 00000KT 03/M04 A3027 RMK A01 T00311036  RH  061%=      5-min Rain = 0
KSB1 120822Z 00000KT 03/M04 A3027 RMK A01 T00311036  RH  061%=      5-min Rain = 0
KSB1 120823Z 00000KT 03/M04 A3027 RMK A01 T00321036  RH  061%=      5-min Rain = 0
KSB1 120824Z 00000KT 03/M04 A3027 RMK A01 T00311036  RH  061%=      5-min Rain = 0
KSB1 120825Z 00000KT 03/M04 A3027 RMK A01 T00311036  RH  061%=      5-min Rain = 0
KSB1 120826Z 00000KT 03/M04 A3027 RMK A01 T00301037  RH  061%=      5-min Rain = 0
KSB1 120827Z 25000KT 03/M04 A3027 RMK A01 T00301037  RH  062%=      5-min Rain = 0
KSB1 120828Z 25000KT 03/M04 A3027 RMK A01 T00301037  RH  062%=      5-min Rain = 0
KSB1 120829Z 25001KT 03/M04 A3026 RMK A01 T00301036  RH  062%=      5-min Rain = 0
KSB1 120830Z 24001KT 03/M04 A3026 RMK A01 T00301036  RH  062%=      5-min Rain = 0
KSB1 120831Z 24001KT 03/M04 A3026 RMK A01 T00301036  RH  062%=      5-min Rain = 0
KSB1 120832Z 23001KT 03/M04 A3026 RMK A01 T00301036  RH  062%=      5-min Rain = 0
KSB1 120833Z 23001KT 03/M04 A3026 RMK A01 T00301036  RH  062%=      5-min Rain = 0
KSB1 120834Z 22001KT 03/M04 A3026 RMK A01 T00301035  RH  062%=      5-min Rain = 0
KSB1 120835Z 21001KT 03/M04 A3026 RMK A01 T00301036  RH  062%=      5-min Rain = 0
KSB1 120836Z 20001KT 03/M04 A3026 RMK A01 T00301035  RH  062%=      5-min Rain = 0
KSB1 120837Z 00000KT 03/M04 A3026 RMK A01 T00311035  RH  062%=      5-min Rain = 0
KSB1 120838Z 00000KT 03/M04 A3026 RMK A01 T00311035  RH  062%=      5-min Rain = 0
KSB1 120839Z 00000KT 03/M04 A3026 RMK A01 T00311035  RH  062%=      5-min Rain = 0
KSB1 120840Z 00000KT 03/M04 A3026 RMK A01 T00321035  RH  062%=      5-min Rain = 0
KSB1 120841Z 00000KT 03/M04 A3026 RMK A01 T00321035  RH  062%=      5-min Rain = 0
KSB1 120842Z 00000KT 03/M04 A3026 RMK A01 T00321035  RH  062%=      5-min Rain = 0
KSB1 120843Z 09000KT 03/M04 A3026 RMK A01 T00321035  RH  062%=      5-min Rain = 0
KSB1 120844Z 09001KT 03/M04 A3026 RMK A01 T00321035  RH  061%=      5-min Rain = 0
KSB1 120845Z 08001KT 03/M04 A3026 RMK A01 T00321035  RH  061%=      5-min Rain = 0
KSB1 120846Z 07001KT 03/M04 A3026 RMK A01 T00321035  RH  061%=      5-min Rain = 0
KSB1 120847Z 06000KT 03/M04 A3026 RMK A01 T00331035  RH  061%=      5-min Rain = 0
KSB1 120848Z 06001KT 03/M04 A3026 RMK A01 T00331035  RH  061%=      5-min Rain = 0
KSB1 120849Z 06001KT 03/M04 A3026 RMK A01 T00331035  RH  061%=      5-min Rain = 0
KSB1 120850Z 04001KT 03/M04 A3026 RMK A01 T00341035  RH  061%=      5-min Rain = 0
KSB1 120851Z 07000KT 03/M04 A3026 RMK A01 T00311037  RH  061%=      5-min Rain = 0
KSB1 120852Z 09001KT 03/M04 A3026 RMK A01 T00271038  RH  062%=      5-min Rain = 0
KSB1 120853Z 10001KT 03/M04 A3026 RMK A01 T00271036  RH  063%=      5-min Rain = 0
KSB1 120854Z 10002KT 03/M04 A3026 RMK A01 T00271036  RH  063%=      5-min Rain = 0
KSB1 120855Z 08001KT 03/M04 A3026 RMK A01 T00281036  RH  063%=      5-min Rain = 0
KSB1 120856Z 07001KT 03/M04 A3026 RMK A01 T00291036  RH  062%=      5-min Rain = 0
KSB1 120857Z 06002KT 03/M04 A3026 RMK A01 T00291036  RH  062%=      5-min Rain = 0
KSB1 120858Z 06002KT 03/M04 A3026 RMK A01 T00301035  RH  062%=      5-min Rain = 0
KSB1 120859Z 04002KT 03/M04 A3026 RMK A01 T00311035  RH  062%=      5-min Rain = 0
KSB1 120900Z 04002KT 03/M04 A3026 RMK A01 T00321035  RH  062%=      5-min Rain = 0
KSB1 120901Z 04001KT 03/M04 A3026 RMK A01 T00311035  RH  062%=      5-min Rain = 0
KSB1 120902Z 06002KT 03/M04 A3026 RMK A01 T00321035  RH  062%=      5-min Rain = 0
KSB1 120903Z 06001KT 03/M04 A3026 RMK A01 T00321035  RH  061%=      5-min Rain = 0
KSB1 120904Z 03001KT 03/M04 A3026 RMK A01 T00321035  RH  062%=      5-min Rain = 0
KSB1 120905Z 01001KT 03/M04 A3026 RMK A01 T00311035  RH  062%=      5-min Rain = 0
KSB1 120906Z 01001KT 03/M04 A3026 RMK A01 T00301035  RH  062%=      5-min Rain = 0
KSB1 120907Z 02001KT 03/M04 A3026 RMK A01 T00301035  RH  062%=      5-min Rain = 0
KSB1 120908Z 01001KT 03/M04 A3026 RMK A01 T00291035  RH  063%=      5-min Rain = 0
KSB1 120909Z 02000KT 03/M04 A3026 RMK A01 T00281035  RH  063%=      5-min Rain = 0
KSB1 120910Z 05001KT 03/M03 A3026 RMK A01 T00281034  RH  063%=      5-min Rain = 0
KSB1 120911Z 04001KT 03/M04 A3026 RMK A01 T00281035  RH  063%=      5-min Rain = 0
KSB1 120912Z 03001KT 03/M04 A3026 RMK A01 T00291035  RH  063%=      5-min Rain = 0
KSB1 120913Z 03002KT 03/M04 A3026 RMK A01 T00301035  RH  062%=      5-min Rain = 0
KSB1 120914Z 03002KT 03/M04 A3027 RMK A01 T00311035  RH  062%=      5-min Rain = 0
KSB1 120915Z 02002KT 03/M03 A3027 RMK A01 T00321034  RH  062%=      5-min Rain = 0
KSB1 120916Z 00003KT 03/M03 A3027 RMK A01 T00321034  RH  062%=      5-min Rain = 0
KSB1 120917Z 00003KT 03/M04 A3027 RMK A01 T00311035  RH  062%=      5-min Rain = 0
KSB1 120918Z 35003KT 03/M04 A3026 RMK A01 T00291035  RH  063%=      5-min Rain = 0
KSB1 120919Z 35003KT 03/M04 A3026 RMK A01 T00281035  RH  063%=      5-min Rain = 0
KSB1 120920Z 00002KT 03/M04 A3026 RMK A01 T00261035  RH  064%=      5-min Rain = 0
KSB1 120921Z 36001KT 03/M04 A3026 RMK A01 T00261035  RH  064%=      5-min Rain = 0
KSB1 120922Z 02001KT 03/M04 A3026 RMK A01 T00261035  RH  064%=      5-min Rain = 0
KSB1 120923Z 01002KT 03/M04 A3026 RMK A01 T00251035  RH  064%=      5-min Rain = 0
KSB1 120924Z 02001KT 03/M04 A3026 RMK A01 T00261035  RH  064%=      5-min Rain = 0
KSB1 120925Z 01002KT 03/M04 A3026 RMK A01 T00281035  RH  064%=      5-min Rain = 0
KSB1 120926Z 00002KT 03/M03 A3026 RMK A01 T00291034  RH  063%=      5-min Rain = 0
KSB1 120927Z 36002KT 03/M04 A3026 RMK A01 T00301035  RH  063%=      5-min Rain = 0
KSB1 120928Z 36002KT 03/M04 A3026 RMK A01 T00301035  RH  063%=      5-min Rain = 0
KSB1 120929Z 01002KT 03/M03 A3026 RMK A01 T00301034  RH  063%=      5-min Rain = 0
KSB1 120930Z 02001KT 03/M03 A3026 RMK A01 T00301034  RH  063%=      5-min Rain = 0
KSB1 120931Z 03001KT 03/M03 A3026 RMK A01 T00311034  RH  063%=      5-min Rain = 0
KSB1 120932Z 00000KT 03/M03 A3026 RMK A01 T00321034  RH  062%=      5-min Rain = 0
KSB1 120933Z 00000KT 03/M03 A3026 RMK A01 T00321034  RH  062%=      5-min Rain = 0
KSB1 120934Z 00000KT 03/M03 A3026 RMK A01 T00321034  RH  062%=      5-min Rain = 0
KSB1 120935Z 04000KT 03/M03 A3026 RMK A01 T00331034  RH  061%=      5-min Rain = 0
KSB1 120936Z 05001KT 03/M03 A3026 RMK A01 T00331034  RH  061%=      5-min Rain = 0
KSB1 120937Z 06001KT 03/M04 A3026 RMK A01 T00331035  RH  061%=      5-min Rain = 0
KSB1 120938Z 06001KT 03/M04 A3026 RMK A01 T00331035  RH  061%=      5-min Rain = 0
KSB1 120939Z 05001KT 03/M03 A3026 RMK A01 T00341034  RH  061%=      5-min Rain = 0
KSB1 120940Z 05001KT 03/M04 A3026 RMK A01 T00331035  RH  061%=      5-min Rain = 0
KSB1 120941Z 05001KT 03/M03 A3026 RMK A01 T00331034  RH  061%=      5-min Rain = 0
KSB1 120942Z 04001KT 03/M04 A3026 RMK A01 T00331035  RH  061%=      5-min Rain = 0
KSB1 120943Z 03001KT 03/M03 A3026 RMK A01 T00331034  RH  061%=      5-min Rain = 0
KSB1 120944Z 02001KT 03/M03 A3026 RMK A01 T00331034  RH  061%=      5-min Rain = 0
KSB1 120945Z 02001KT 03/M03 A3026 RMK A01 T00331034  RH  061%=      5-min Rain = 0
KSB1 120946Z 03001KT 03/M04 A3026 RMK A01 T00321035  RH  061%=      5-min Rain = 0
KSB1 120947Z 02001KT 03/M03 A3026 RMK A01 T00321034  RH  062%=      5-min Rain = 0
KSB1 120948Z 02001KT 03/M04 A3026 RMK A01 T00321035  RH  061%=      5-min Rain = 0
KSB1 120949Z 02002KT 03/M04 A3026 RMK A01 T00331035  RH  061%=      5-min Rain = 0
KSB1 120950Z 02001KT 03/M04 A3026 RMK A01 T00331035  RH  061%=      5-min Rain = 0
KSB1 120951Z 02001KT 03/M04 A3026 RMK A01 T00331035  RH  061%=      5-min Rain = 0
KSB1 120952Z 02001KT 03/M04 A3026 RMK A01 T00341035  RH  061%=      5-min Rain = 0
KSB1 120953Z 02001KT 03/M04 A3026 RMK A01 T00331035  RH  061%=      5-min Rain = 0
KSB1 120954Z 03001KT 03/M04 A3026 RMK A01 T00331035  RH  061%=      5-min Rain = 0
KSB1 120955Z 03002KT 03/M04 A3026 RMK A01 T00331035  RH  061%=      5-min Rain = 0
KSB1 120956Z 03002KT 03/M04 A3026 RMK A01 T00331035  RH  061%=      5-min Rain = 0
KSB1 120957Z 03002KT 03/M04 A3026 RMK A01 T00331035  RH  061%=      5-min Rain = 0
KSB1 120958Z 03002KT 03/M04 A3026 RMK A01 T00331035  RH  061%=      5-min Rain = 0
KSB1 120959Z 04002KT 03/M03 A3026 RMK A01 T00331034  RH  061%=      5-min Rain = 0
KSB1 121000Z 04002KT 03/M03 A3026 RMK A01 T00331034  RH  061%=      5-min Rain = 0
KSB1 121001Z 04001KT 03/M04 A3025 RMK A01 T00331035  RH  061%=      5-min Rain = 0
KSB1 121002Z 04001KT 03/M04 A3025 RMK A01 T00331035  RH  061%=      5-min Rain = 0
KSB1 121003Z 04000KT 03/M04 A3025 RMK A01 T00331035  RH  061%=      5-min Rain = 0
KSB1 121004Z 03000KT 03/M04 A3025 RMK A01 T00331035  RH  061%=      5-min Rain = 0
KSB1 121005Z 00000KT 03/M04 A3025 RMK A01 T00331035  RH  061%=      5-min Rain = 0
KSB1 121006Z 00000KT 03/M04 A3025 RMK A01 T00341035  RH  061%=      5-min Rain = 0
KSB1 121007Z 00000KT 03/M03 A3025 RMK A01 T00341034  RH  061%=      5-min Rain = 0
KSB1 121008Z 00000KT 03/M03 A3025 RMK A01 T00341034  RH  061%=      5-min Rain = 0
KSB1 121009Z 00000KT 04/M03 A3025 RMK A01 T00351033  RH  061%=      5-min Rain = 0
KSB1 121010Z 03000KT 04/M03 A3025 RMK A01 T00351034  RH  061%=      5-min Rain = 0
KSB1 121011Z 18001KT 04/M03 A3025 RMK A01 T00351033  RH  061%=      5-min Rain = 0
KSB1 121012Z 18001KT 04/M03 A3026 RMK A01 T00351033  RH  061%=      5-min Rain = 0
KSB1 121013Z 18001KT 04/M03 A3026 RMK A01 T00351033  RH  061%=      5-min Rain = 0
KSB1 121014Z 18001KT 04/M03 A3026 RMK A01 T00351033  RH  061%=      5-min Rain = 0
KSB1 121015Z 18001KT 03/M03 A3026 RMK A01 T00341033  RH  061%=      5-min Rain = 0
KSB1 121016Z 18001KT 03/M03 A3025 RMK A01 T00331034  RH  061%=      5-min Rain = 0
KSB1 121017Z 18001KT 03/M03 A3025 RMK A01 T00321033  RH  062%=      5-min Rain = 0
KSB1 121018Z 18001KT 03/M03 A3026 RMK A01 T00301033  RH  063%=      5-min Rain = 0
KSB1 121019Z 18001KT 03/M03 A3026 RMK A01 T00281033  RH  064%=      5-min Rain = 0
KSB1 121020Z 19001KT 03/M03 A3026 RMK A01 T00261032  RH  065%=      5-min Rain = 0
KSB1 121021Z 21002KT 03/M03 A3026 RMK A01 T00251032  RH  066%=      5-min Rain = 0
KSB1 121022Z 21002KT 02/M03 A3026 RMK A01 T00241032  RH  066%=      5-min Rain = 0
KSB1 121023Z 22002KT 02/M03 A3026 RMK A01 T00231032  RH  067%=      5-min Rain = 0
KSB1 121024Z 24002KT 02/M03 A3026 RMK A01 T00231032  RH  067%=      5-min Rain = 0
KSB1 121025Z 24002KT 02/M03 A3026 RMK A01 T00231031  RH  067%=      5-min Rain = 0
KSB1 121026Z 24003KT 02/M03 A3026 RMK A01 T00241031  RH  067%=      5-min Rain = 0
KSB1 121027Z 24002KT 03/M03 A3026 RMK A01 T00251030  RH  067%=      5-min Rain = 0
KSB1 121028Z 26003KT 03/M03 A3026 RMK A01 T00251030  RH  067%=      5-min Rain = 0
KSB1 121029Z 27005KT 03/M03 A3026 RMK A01 T00251028  RH  068%=      5-min Rain = 0
KSB1 121030Z 27005KT 03/M03 A3026 RMK A01 T00251028  RH  068%=      5-min Rain = 0
KSB1 121031Z 26004KT 03/M03 A3026 RMK A01 T00251025  RH  069%=      5-min Rain = 0
KSB1 121032Z 26004KT 03/M02 A3026 RMK A01 T00271023  RH  069%=      5-min Rain = 0
KSB1 121033Z 26004KT 03/M02 A3026 RMK A01 T00291022  RH  069%=      5-min Rain = 0
KSB1 121034Z 26003KT 03/M03 A3026 RMK A01 T00301025  RH  067%=      5-min Rain = 0
KSB1 121035Z 28003KT 03/M03 A3026 RMK A01 T00251033  RH  066%=      5-min Rain = 0
KSB1 121036Z 28003KT 02/M04 A3026 RMK A01 T00211035  RH  066%=      5-min Rain = 0
KSB1 121037Z 27004KT 02/M04 A3026 RMK A01 T00191035  RH  067%=      5-min Rain = 0
KSB1 121038Z 26004KT 02/M03 A3026 RMK A01 T00191033  RH  069%=      5-min Rain = 0
KSB1 121039Z 26004KT 02/M03 A3025 RMK A01 T00201028  RH  070%=      5-min Rain = 0
KSB1 121040Z 27004KT 02/M03 A3025 RMK A01 T00221026  RH  071%=      5-min Rain = 0
KSB1 121041Z 26004KT 02/M02 A3025 RMK A01 T00241023  RH  071%=      5-min Rain = 0
KSB1 121042Z 25006KT 03/M02 A3025 RMK A01 T00281021  RH  070%=      5-min Rain = 0
KSB1 121043Z 25006KT 03/M02 A3025 RMK A01 T00301021  RH  069%=      5-min Rain = 0
KSB1 121044Z 25006KT 03/M02 A3025 RMK A01 T00311021  RH  069%=      5-min Rain = 0
KSB1 121045Z 25006KT 03/M02 A3025 RMK A01 T00321022  RH  068%=      5-min Rain = 0
KSB1 121046Z 24007KT 03/M02 A3025 RMK A01 T00311023  RH  068%=      5-min Rain = 0
KSB1 121047Z 24007KT 03/M02 A3025 RMK A01 T00291024  RH  068%=      5-min Rain = 0
KSB1 121048Z 24006KT 03/M02 A3025 RMK A01 T00281023  RH  069%=      5-min Rain = 0
KSB1 121049Z 24006KT 03/M02 A3025 RMK A01 T00281023  RH  069%=      5-min Rain = 0
KSB1 121050Z 24006KT 03/M02 A3025 RMK A01 T00281023  RH  069%=      5-min Rain = 0
KSB1 121051Z 24006KT 03/M02 A3025 RMK A01 T00271023  RH  069%=      5-min Rain = 0
KSB1 121052Z 24007KT 03/M02 A3025 RMK A01 T00271023  RH  070%=      5-min Rain = 0
KSB1 121053Z 24007KT 03/M02 A3025 RMK A01 T00271023  RH  070%=      5-min Rain = 0
KSB1 121054Z 23007KT 03/M02 A3025 RMK A01 T00261023  RH  070%=      5-min Rain = 0
KSB1 121055Z 23006KT 03/M02 A3025 RMK A01 T00261023  RH  070%=      5-min Rain = 0
KSB1 121056Z 24006KT 03/M02 A3025 RMK A01 T00261023  RH  070%=      5-min Rain = 0
KSB1 121057Z 24006KT 03/M02 A3025 RMK A01 T00261023  RH  070%=      5-min Rain = 0
KSB1 121058Z 25006KT 03/M02 A3025 RMK A01 T00261023  RH  070%=      5-min Rain = 0
KSB1 121059Z 24006KT 03/M02 A3025 RMK A01 T00261023  RH  070%=      5-min Rain = 0
KSB1 121100Z 24006KT 03/M02 A3025 RMK A01 T00261022  RH  070%=      5-min Rain = 0
KSB1 121101Z 24006KT 03/M02 A3025 RMK A01 T00271022  RH  070%=      5-min Rain = 0
KSB1 121102Z 24005KT 03/M02 A3024 RMK A01 T00271023  RH  070%=      5-min Rain = 0
KSB1 121103Z 24005KT 03/M02 A3024 RMK A01 T00271022  RH  070%=      5-min Rain = 0
KSB1 121104Z 24005KT 03/M02 A3024 RMK A01 T00271022  RH  070%=      5-min Rain = 0
KSB1 121105Z 25005KT 03/M02 A3024 RMK A01 T00281022  RH  070%=      5-min Rain = 0
KSB1 121106Z 24005KT 03/M02 A3024 RMK A01 T00281022  RH  070%=      5-min Rain = 0
KSB1 121107Z 24006KT 03/M02 A3024 RMK A01 T00281022  RH  070%=      5-min Rain = 0
KSB1 121108Z 23006KT 03/M02 A3024 RMK A01 T00281022  RH  069%=      5-min Rain = 0
KSB1 121109Z 23005KT 03/M02 A3024 RMK A01 T00271022  RH  070%=      5-min Rain = 0
KSB1 121110Z 23005KT 03/M02 A3024 RMK A01 T00271022  RH  070%=      5-min Rain = 0
KSB1 121111Z 24005KT 03/M02 A3025 RMK A01 T00271022  RH  070%=      5-min Rain = 0
KSB1 121112Z 24005KT 03/M02 A3025 RMK A01 T00271022  RH  070%=      5-min Rain = 0
KSB1 121113Z 24005KT 03/M02 A3025 RMK A01 T00261022  RH  070%=      5-min Rain = 0
KSB1 121114Z 24005KT 03/M02 A3025 RMK A01 T00261023  RH  070%=      5-min Rain = 0
KSB1 121115Z 24006KT 03/M02 A3025 RMK A01 T00261022  RH  071%=      5-min Rain = 0
KSB1 121116Z 24005KT 03/M02 A3025 RMK A01 T00261022  RH  070%=      5-min Rain = 0
KSB1 121117Z 25005KT 03/M02 A3025 RMK A01 T00261022  RH  070%=      5-min Rain = 0
KSB1 121118Z 24005KT 03/M02 A3025 RMK A01 T00271022  RH  070%=      5-min Rain = 0
KSB1 121119Z 25004KT 03/M02 A3025 RMK A01 T00281022  RH  070%=      5-min Rain = 0
KSB1 121120Z 25005KT 03/M02 A3025 RMK A01 T00281021  RH  070%=      5-min Rain = 0
KSB1 121121Z 24005KT 03/M02 A3025 RMK A01 T00291021  RH  070%=      5-min Rain = 0
KSB1 121122Z 24005KT 03/M02 A3025 RMK A01 T00291021  RH  069%=      5-min Rain = 0
KSB1 121123Z 23004KT 03/M02 A3025 RMK A01 T00291022  RH  069%=      5-min Rain = 0
KSB1 121124Z 23004KT 03/M02 A3024 RMK A01 T00291022  RH  069%=      5-min Rain = 0
KSB1 121125Z 24005KT 03/M02 A3024 RMK A01 T00291021  RH  070%=      5-min Rain = 0
KSB1 121126Z 24004KT 03/M02 A3025 RMK A01 T00301021  RH  069%=      5-min Rain = 0
KSB1 121127Z 24004KT 03/M02 A3025 RMK A01 T00311020  RH  069%=      5-min Rain = 0
KSB1 121128Z 24004KT 03/M02 A3025 RMK A01 T00311021  RH  069%=      5-min Rain = 0
KSB1 121129Z 23004KT 03/M02 A3025 RMK A01 T00321020  RH  069%=      5-min Rain = 0
KSB1 121130Z 23005KT 03/M02 A3025 RMK A01 T00321020  RH  069%=      5-min Rain = 0
KSB1 121131Z 23005KT 03/M02 A3024 RMK A01 T00331020  RH  068%=      5-min Rain = 0
KSB1 121132Z 22004KT 03/M02 A3025 RMK A01 T00341020  RH  068%=      5-min Rain = 0
KSB1 121133Z 22004KT 03/M02 A3025 RMK A01 T00341020  RH  068%=      5-min Rain = 0
KSB1 121134Z 22003KT 03/M02 A3025 RMK A01 T00331021  RH  068%=      5-min Rain = 0
KSB1 121135Z 22003KT 03/M02 A3025 RMK A01 T00311022  RH  068%=      5-min Rain = 0
KSB1 121136Z 23003KT 03/M02 A3025 RMK A01 T00301023  RH  069%=      5-min Rain = 0
KSB1 121137Z 23002KT 03/M02 A3025 RMK A01 T00281022  RH  069%=      5-min Rain = 0
KSB1 121138Z 23002KT 03/M02 A3025 RMK A01 T00271022  RH  070%=      5-min Rain = 0
KSB1 121139Z 23002KT 03/M02 A3025 RMK A01 T00281021  RH  070%=      5-min Rain = 0
KSB1 121140Z 24002KT 03/M02 A3024 RMK A01 T00281021  RH  070%=      5-min Rain = 0
KSB1 121141Z 24002KT 03/M02 A3024 RMK A01 T00291020  RH  070%=      5-min Rain = 0
KSB1 121142Z 25002KT 03/M02 A3024 RMK A01 T00301020  RH  070%=      5-min Rain = 0
KSB1 121143Z 26002KT 03/M02 A3024 RMK A01 T00301021  RH  069%=      5-min Rain = 0
KSB1 121144Z 25003KT 03/M02 A3025 RMK A01 T00301021  RH  069%=      5-min Rain = 0
KSB1 121145Z 25003KT 03/M02 A3025 RMK A01 T00301021  RH  069%=      5-min Rain = 0
KSB1 121146Z 24004KT 03/M02 A3025 RMK A01 T00301021  RH  069%=      5-min Rain = 0
KSB1 121147Z 24004KT 03/M02 A3025 RMK A01 T00291022  RH  070%=      5-min Rain = 0
KSB1 121148Z 25004KT 03/M02 A3025 RMK A01 T00281022  RH  070%=      5-min Rain = 0
KSB1 121149Z 24004KT 03/M02 A3025 RMK A01 T00271022  RH  070%=      5-min Rain = 0
KSB1 121150Z 24003KT 03/M02 A3025 RMK A01 T00271022  RH  070%=      5-min Rain = 0
KSB1 121151Z 24003KT 03/M02 A3025 RMK A01 T00271021  RH  070%=      5-min Rain = 0
KSB1 121152Z 25003KT 03/M02 A3025 RMK A01 T00271021  RH  070%=      5-min Rain = 0
KSB1 121153Z 24003KT 03/M02 A3025 RMK A01 T00281021  RH  070%=      5-min Rain = 0
KSB1 121154Z 24003KT 03/M02 A3025 RMK A01 T00291021  RH  070%=      5-min Rain = 0
KSB1 121155Z 22003KT 03/M02 A3025 RMK A01 T00301021  RH  069%=      5-min Rain = 0
KSB1 121156Z 22003KT 03/M02 A3025 RMK A01 T00311020  RH  069%=      5-min Rain = 0
KSB1 121157Z 22003KT 03/M02 A3025 RMK A01 T00311020  RH  069%=      5-min Rain = 0
KSB1 121158Z 22003KT 03/M02 A3025 RMK A01 T00321020  RH  069%=      5-min Rain = 0
KSB1 121159Z 22004KT 03/M02 A3025 RMK A01 T00311021  RH  068%=      5-min Rain = 0
KSB1 121200Z 22004KT 03/M02 A3025 RMK A01 T00301022  RH  069%=      5-min Rain = 0
KSB1 121201Z 22004KT 03/M02 A3025 RMK A01 T00291022  RH  069%=      5-min Rain = 0
KSB1 121202Z 21004KT 03/M02 A3025 RMK A01 T00291021  RH  070%=      5-min Rain = 0
KSB1 121203Z 21004KT 03/M02 A3024 RMK A01 T00301020  RH  070%=      5-min Rain = 0
KSB1 121204Z 21005KT 03/M02 A3024 RMK A01 T00301021  RH  069%=      5-min Rain = 0
KSB1 121205Z 21004KT 03/M02 A3024 RMK A01 T00271024  RH  069%=      5-min Rain = 0
KSB1 121206Z 22004KT 02/M03 A3024 RMK A01 T00241025  RH  070%=      5-min Rain = 0
KSB1 121207Z 22004KT 02/M02 A3024 RMK A01 T00231024  RH  071%=      5-min Rain = 0
KSB1 121208Z 23004KT 02/M02 A3025 RMK A01 T00221024  RH  071%=      5-min Rain = 0
KSB1 121209Z 24004KT 02/M03 A3025 RMK A01 T00211025  RH  072%=      5-min Rain = 0
KSB1 121210Z 24004KT 02/M02 A3024 RMK A01 T00201024  RH  072%=      5-min Rain = 0
KSB1 121211Z 24005KT 02/M02 A3024 RMK A01 T00201024  RH  072%=      5-min Rain = 0
KSB1 121212Z 23005KT 02/M02 A3024 RMK A01 T00191024  RH  073%=      5-min Rain = 0
KSB1 121213Z 23005KT 02/M03 A3024 RMK A01 T00191025  RH  073%=      5-min Rain = 0
KSB1 121214Z 24004KT 02/M03 A3024 RMK A01 T00181025  RH  073%=      5-min Rain = 0
KSB1 121215Z 24005KT 02/M02 A3025 RMK A01 T00181024  RH  074%=      5-min Rain = 0
KSB1 121216Z 23005KT 02/M03 A3025 RMK A01 T00171025  RH  074%=      5-min Rain = 0
KSB1 121217Z 24005KT 02/M03 A3024 RMK A01 T00161025  RH  074%=      5-min Rain = 0
KSB1 121218Z 24005KT 02/M03 A3024 RMK A01 T00151025  RH  074%=      5-min Rain = 0
KSB1 121219Z 24005KT 02/M03 A3024 RMK A01 T00151025  RH  075%=      5-min Rain = 0
KSB1 121220Z 25005KT 02/M02 A3024 RMK A01 T00161023  RH  075%=      5-min Rain = 0
KSB1 121221Z 25005KT 02/M02 A3025 RMK A01 T00181023  RH  074%=      5-min Rain = 0
KSB1 121222Z 25005KT 02/M02 A3025 RMK A01 T00191023  RH  074%=      5-min Rain = 0
KSB1 121223Z 24006KT 02/M02 A3024 RMK A01 T00181024  RH  074%=      5-min Rain = 0
KSB1 121224Z 24007KT 02/M03 A3024 RMK A01 T00181025  RH  073%=      5-min Rain = 0
KSB1 121225Z 24007KT 02/M03 A3024 RMK A01 T00161026  RH  074%=      5-min Rain = 0
KSB1 121226Z 24007KT 01/M03 A3024 RMK A01 T00131028  RH  074%=      5-min Rain = 0
KSB1 121227Z 24007KT 01/M03 A3024 RMK A01 T00121028  RH  075%=      5-min Rain = 0
KSB1 121228Z 24008KT 01/M03 A3024 RMK A01 T00111027  RH  076%=      5-min Rain = 0
KSB1 121229Z 24008KT 01/M03 A3024 RMK A01 T00111026  RH  076%=      5-min Rain = 0
KSB1 121230Z 24009KT 01/M03 A3024 RMK A01 T00121025  RH  076%=      5-min Rain = 0
KSB1 121231Z 24009KT 01/M03 A3024 RMK A01 T00131025  RH  076%=      5-min Rain = 0
KSB1 121232Z 24009KT 01/M03 A3024 RMK A01 T00131025  RH  076%=      5-min Rain = 0
KSB1 121233Z 24010KT 01/M02 A3024 RMK A01 T00141024  RH  076%=      5-min Rain = 0
KSB1 121234Z 23009KT 02/M02 A3024 RMK A01 T00151024  RH  075%=      5-min Rain = 0
KSB1 121235Z 23009KT 02/M02 A3024 RMK A01 T00161023  RH  075%=      5-min Rain = 0
KSB1 121236Z 24009KT 02/M02 A3024 RMK A01 T00171023  RH  075%=      5-min Rain = 0
KSB1 121237Z 24008KT 02/M02 A3024 RMK A01 T00181022  RH  074%=      5-min Rain = 0
KSB1 121238Z 24008KT 02/M02 A3024 RMK A01 T00191023  RH  074%=      5-min Rain = 0
KSB1 121239Z 24008KT 02/M02 A3024 RMK A01 T00191023  RH  074%=      5-min Rain = 0
KSB1 121240Z 25008KT 02/M02 A3024 RMK A01 T00191022  RH  074%=      5-min Rain = 0
KSB1 121241Z 25008KT 02/M02 A3024 RMK A01 T00201022  RH  074%=      5-min Rain = 0
KSB1 121242Z 25007KT 02/M02 A3024 RMK A01 T00221021  RH  073%=      5-min Rain = 0
KSB1 121243Z 24008KT 02/M02 A3024 RMK A01 T00231021  RH  073%=      5-min Rain = 0
KSB1 121244Z 24008KT 02/M02 A3024 RMK A01 T00241021  RH  072%=      5-min Rain = 0
KSB1 121245Z 24008KT 02/M02 A3024 RMK A01 T00241022  RH  072%=      5-min Rain = 0
KSB1 121246Z 25008KT 02/M02 A3024 RMK A01 T00241022  RH  072%=      5-min Rain = 0
KSB1 121247Z 24007KT 03/M02 A3025 RMK A01 T00251020  RH  072%=      5-min Rain = 0
KSB1 121248Z 25007KT 03/M02 A3025 RMK A01 T00271019  RH  071%=      5-min Rain = 0
KSB1 121249Z 24006KT 03/M02 A3025 RMK A01 T00291019  RH  071%=      5-min Rain = 0
KSB1 121250Z 24008KT 03/M02 A3025 RMK A01 T00301020  RH  070%=      5-min Rain = 0
KSB1 121251Z 25006KT 03/M02 A3025 RMK A01 T00301020  RH  070%=      5-min Rain = 0
KSB1 121252Z 24006KT 03/M02 A3024 RMK A01 T00311020  RH  069%=      5-min Rain = 0
KSB1 121253Z 25007KT 03/M02 A3024 RMK A01 T00301020  RH  069%=      5-min Rain = 0
KSB1 121254Z 24007KT 03/M02 A3025 RMK A01 T00311020  RH  069%=      5-min Rain = 0
KSB1 121255Z 25008KT 03/M02 A3025 RMK A01 T00311020  RH  069%=      5-min Rain = 0
KSB1 121256Z 25008KT 03/M02 A3025 RMK A01 T00321019  RH  069%=      5-min Rain = 0
KSB1 121257Z 25009KT 03/M02 A3025 RMK A01 T00331019  RH  069%=      5-min Rain = 0
KSB1 121258Z 24009KT 03/M02 A3025 RMK A01 T00331020  RH  068%=      5-min Rain = 0
KSB1 121259Z 24008KT 03/M02 A3025 RMK A01 T00321021  RH  068%=      5-min Rain = 0
KSB1 121300Z 25008KT 03/M02 A3025 RMK A01 T00301022  RH  069%=      5-min Rain = 0
KSB1 121301Z 24008KT 03/M02 A3025 RMK A01 T00291021  RH  069%=      5-min Rain = 0
KSB1 121302Z 24008KT 03/M02 A3025 RMK A01 T00291021  RH  070%=      5-min Rain = 0
KSB1 121303Z 25007KT 03/M02 A3025 RMK A01 T00291021  RH  070%=      5-min Rain = 0
KSB1 121304Z 25007KT 03/M02 A3025 RMK A01 T00281021  RH  070%=      5-min Rain = 0
KSB1 121305Z 24007KT 03/M02 A3025 RMK A01 T00271021  RH  070%=      5-min Rain = 0
KSB1 121306Z 24007KT 03/M02 A3025 RMK A01 T00271022  RH  070%=      5-min Rain = 0
KSB1 121307Z 24007KT 03/M02 A3025 RMK A01 T00261022  RH  071%=      5-min Rain = 0
KSB1 121308Z 24008KT 03/M02 A3025 RMK A01 T00251023  RH  071%=      5-min Rain = 0
KSB1 121309Z 24008KT 02/M02 A3024 RMK A01 T00241022  RH  071%=      5-min Rain = 0
KSB1 121310Z 23007KT 02/M02 A3024 RMK A01 T00241022  RH  072%=      5-min Rain = 0
KSB1 121311Z 24008KT 03/M02 A3024 RMK A01 T00251021  RH  072%=      5-min Rain = 0
KSB1 121312Z 24007KT 03/M02 A3024 RMK A01 T00271020  RH  071%=      5-min Rain = 0
KSB1 121313Z 24007KT 03/M02 A3024 RMK A01 T00281020  RH  071%=      5-min Rain = 0
KSB1 121314Z 24007KT 03/M02 A3024 RMK A01 T00281021  RH  070%=      5-min Rain = 0
KSB1 121315Z 24006KT 03/M02 A3024 RMK A01 T00271022  RH  070%=      5-min Rain = 0
KSB1 121316Z 24006KT 03/M02 A3024 RMK A01 T00261022  RH  071%=      5-min Rain = 0
KSB1 121317Z 24006KT 03/M02 A3024 RMK A01 T00261021  RH  071%=      5-min Rain = 0
KSB1 121318Z 24006KT 03/M02 A3024 RMK A01 T00261021  RH  071%=      5-min Rain = 0
KSB1 121319Z 24006KT 03/M02 A3024 RMK A01 T00261021  RH  071%=      5-min Rain = 0
KSB1 121320Z 24005KT 03/M02 A3024 RMK A01 T00271021  RH  071%=      5-min Rain = 0
KSB1 121321Z 25005KT 03/M02 A3024 RMK A01 T00271021  RH  071%=      5-min Rain = 0
KSB1 121322Z 24006KT 03/M02 A3024 RMK A01 T00271021  RH  071%=      5-min Rain = 0
KSB1 121323Z 24005KT 03/M02 A3024 RMK A01 T00271020  RH  071%=      5-min Rain = 0
KSB1 121324Z 24005KT 03/M02 A3024 RMK A01 T00271021  RH  070%=      5-min Rain = 0
KSB1 121325Z 24005KT 03/M02 A3024 RMK A01 T00271022  RH  070%=      5-min Rain = 0
KSB1 121326Z 24005KT 03/M02 A3024 RMK A01 T00261022  RH  071%=      5-min Rain = 0
KSB1 121327Z 24006KT 03/M02 A3024 RMK A01 T00261021  RH  071%=      5-min Rain = 0
KSB1 121328Z 23006KT 03/M02 A3024 RMK A01 T00271022  RH  071%=      5-min Rain = 0
KSB1 121329Z 23006KT 03/M02 A3024 RMK A01 T00261022  RH  071%=      5-min Rain = 0
KSB1 121330Z 23005KT 03/M02 A3024 RMK A01 T00261021  RH  071%=      5-min Rain = 0
KSB1 121331Z 24005KT 03/M02 A3024 RMK A01 T00261021  RH  071%=      5-min Rain = 0
KSB1 121332Z 24005KT 03/M02 A3024 RMK A01 T00261022  RH  071%=      5-min Rain = 0
KSB1 121333Z 24004KT 03/M02 A3024 RMK A01 T00261022  RH  071%=      5-min Rain = 0
KSB1 121334Z 22005KT 03/M02 A3024 RMK A01 T00251022  RH  071%=      5-min Rain = 0
KSB1 121335Z 24003KT 03/M02 A3024 RMK A01 T00261021  RH  071%=      5-min Rain = 0
KSB1 121336Z 24004KT 03/M02 A3024 RMK A01 T00261021  RH  071%=      5-min Rain = 0
KSB1 121337Z 24004KT 03/M02 A3024 RMK A01 T00261022  RH  071%=      5-min Rain = 0
KSB1 121338Z 24004KT 03/M02 A3025 RMK A01 T00271021  RH  071%=      5-min Rain = 0
KSB1 121339Z 23005KT 03/M02 A3025 RMK A01 T00271022  RH  070%=      5-min Rain = 0
KSB1 121340Z 22005KT 03/M02 A3025 RMK A01 T00271022  RH  070%=      5-min Rain = 0
KSB1 121341Z 24004KT 03/M02 A3025 RMK A01 T00271022  RH  070%=      5-min Rain = 0
KSB1 121342Z 24004KT 03/M02 A3025 RMK A01 T00271022  RH  070%=      5-min Rain = 0
KSB1 121343Z 24004KT 03/M02 A3025 RMK A01 T00271022  RH  070%=      5-min Rain = 0
KSB1 121344Z 24004KT 03/M02 A3025 RMK A01 T00261022  RH  070%=      5-min Rain = 0
KSB1 121345Z 25004KT 03/M02 A3025 RMK A01 T00261022  RH  071%=      5-min Rain = 0
KSB1 121346Z 24005KT 03/M02 A3025 RMK A01 T00261022  RH  071%=      5-min Rain = 0
KSB1 121347Z 24005KT 03/M02 A3025 RMK A01 T00261021  RH  071%=      5-min Rain = 0
KSB1 121348Z 25005KT 03/M02 A3025 RMK A01 T00261022  RH  071%=      5-min Rain = 0
KSB1 121349Z 26004KT 03/M02 A3025 RMK A01 T00261022  RH  071%=      5-min Rain = 0
KSB1 121350Z 25004KT 03/M02 A3025 RMK A01 T00271021  RH  070%=      5-min Rain = 0
KSB1 121351Z 24005KT 03/M02 A3025 RMK A01 T00281021  RH  070%=      5-min Rain = 0
KSB1 121352Z 24005KT 03/M02 A3025 RMK A01 T00281022  RH  070%=      5-min Rain = 0
KSB1 121353Z 25004KT 03/M02 A3025 RMK A01 T00271022  RH  070%=      5-min Rain = 0
KSB1 121354Z 26003KT 03/M02 A3025 RMK A01 T00281021  RH  070%=      5-min Rain = 0
KSB1 121355Z 25004KT 03/M02 A3025 RMK A01 T00301021  RH  069%=      5-min Rain = 0
KSB1 121356Z 24005KT 03/M02 A3025 RMK A01 T00291022  RH  069%=      5-min Rain = 0
KSB1 121357Z 23005KT 03/M02 A3025 RMK A01 T00281023  RH  069%=      5-min Rain = 0
KSB1 121358Z 25004KT 03/M02 A3025 RMK A01 T00271022  RH  070%=      5-min Rain = 0
KSB1 121359Z 24004KT 03/M02 A3026 RMK A01 T00271022  RH  070%=      5-min Rain = 0
KSB1 121400Z 23005KT 03/M02 A3026 RMK A01 T00281022  RH  070%=      5-min Rain = 0
KSB1 121401Z 23005KT 03/M02 A3026 RMK A01 T00271024  RH  069%=      5-min Rain = 0
KSB1 121402Z 23006KT 03/M03 A3026 RMK A01 T00261025  RH  069%=      5-min Rain = 0
KSB1 121403Z 24005KT 03/M03 A3026 RMK A01 T00251025  RH  070%=      5-min Rain = 0
KSB1 121404Z 24005KT 03/M03 A3026 RMK A01 T00251025  RH  070%=      5-min Rain = 0
KSB1 121405Z 24006KT 03/M02 A3026 RMK A01 T00251024  RH  070%=      5-min Rain = 0
KSB1 121406Z 23006KT 03/M02 A3026 RMK A01 T00251024  RH  070%=      5-min Rain = 0
KSB1 121407Z 23005KT 03/M02 A3026 RMK A01 T00251024  RH  070%=      5-min Rain = 0
KSB1 121408Z 24004KT 03/M02 A3026 RMK A01 T00251023  RH  071%=      5-min Rain = 0
KSB1 121409Z 23003KT 03/M02 A3026 RMK A01 T00251023  RH  070%=      5-min Rain = 0
KSB1 121410Z 22002KT 03/M02 A3026 RMK A01 T00261022  RH  071%=      5-min Rain = 0
KSB1 121411Z 21001KT 03/M02 A3026 RMK A01 T00271020  RH  071%=      5-min Rain = 0
KSB1 121412Z 20001KT 03/M02 A3026 RMK A01 T00281021  RH  070%=      5-min Rain = 0
KSB1 121413Z 21002KT 03/M02 A3026 RMK A01 T00291022  RH  069%=      5-min Rain = 0
KSB1 121414Z 22001KT 03/M02 A3026 RMK A01 T00291023  RH  069%=      5-min Rain = 0
KSB1 121415Z 23000KT 03/M03 A3026 RMK A01 T00281026  RH  068%=      5-min Rain = 0
KSB1 121416Z 30000KT 03/M03 A3026 RMK A01 T00251029  RH  068%=      5-min Rain = 0
KSB1 121417Z 00000KT 02/M03 A3026 RMK A01 T00241028  RH  069%=      5-min Rain = 0
KSB1 121418Z 29000KT 02/M03 A3026 RMK A01 T00231026  RH  070%=      5-min Rain = 0
KSB1 121419Z 27001KT 02/M03 A3026 RMK A01 T00231025  RH  070%=      5-min Rain = 0
KSB1 121420Z 26002KT 02/M03 A3026 RMK A01 T00231025  RH  070%=      5-min Rain = 0
KSB1 121421Z 25002KT 02/M02 A3026 RMK A01 T00231024  RH  071%=      5-min Rain = 0
KSB1 121422Z 26001KT 02/M02 A3026 RMK A01 T00241023  RH  071%=      5-min Rain = 0
KSB1 121423Z 26000KT 03/M02 A3026 RMK A01 T00251023  RH  071%=      5-min Rain = 0
KSB1 121424Z 00000KT 03/M03 A3027 RMK A01 T00251025  RH  070%=      5-min Rain = 0
KSB1 121425Z 08002KT 03/M03 A3027 RMK A01 T00251026  RH  069%=      5-min Rain = 0
KSB1 121426Z 07003KT 02/M03 A3027 RMK A01 T00231028  RH  069%=      5-min Rain = 0
KSB1 121427Z 06003KT 02/M03 A3027 RMK A01 T00201030  RH  070%=      5-min Rain = 0
KSB1 121428Z 06003KT 02/M03 A3027 RMK A01 T00181029  RH  071%=      5-min Rain = 0
KSB1 121429Z 04003KT 02/M03 A3027 RMK A01 T00171029  RH  071%=      5-min Rain = 0
KSB1 121430Z 03003KT 02/M03 A3027 RMK A01 T00161030  RH  072%=      5-min Rain = 0
KSB1 121431Z 02003KT 01/M03 A3027 RMK A01 T00141031  RH  072%=      5-min Rain = 0
KSB1 121432Z 02003KT 01/M03 A3027 RMK A01 T00131031  RH  072%=      5-min Rain = 0
KSB1 121433Z 02004KT 01/M03 A3027 RMK A01 T00131030  RH  073%=      5-min Rain = 0
KSB1 121434Z 01004KT 01/M03 A3027 RMK A01 T00121030  RH  073%=      5-min Rain = 0
KSB1 121435Z 00004KT 01/M03 A3027 RMK A01 T00121030  RH  073%=      5-min Rain = 0
KSB1 121436Z 01004KT 01/M03 A3027 RMK A01 T00121030  RH  073%=      5-min Rain = 0
KSB1 121437Z 01004KT 01/M03 A3027 RMK A01 T00121030  RH  073%=      5-min Rain = 0
KSB1 121438Z 02003KT 01/M03 A3027 RMK A01 T00131030  RH  073%=      5-min Rain = 0
KSB1 121439Z 02002KT 01/M03 A3027 RMK A01 T00131030  RH  073%=      5-min Rain = 0
KSB1 121440Z 02003KT 01/M03 A3027 RMK A01 T00141029  RH  073%=      5-min Rain = 0
KSB1 121441Z 02004KT 02/M03 A3027 RMK A01 T00151029  RH  073%=      5-min Rain = 0
KSB1 121442Z 01004KT 02/M03 A3027 RMK A01 T00151029  RH  072%=      5-min Rain = 0
KSB1 121443Z 01004KT 02/M03 A3027 RMK A01 T00161029  RH  072%=      5-min Rain = 0
KSB1 121444Z 02004KT 02/M03 A3027 RMK A01 T00161028  RH  072%=      5-min Rain = 0
KSB1 121445Z 02003KT 02/M03 A3027 RMK A01 T00171028  RH  072%=      5-min Rain = 0
KSB1 121446Z 01003KT 02/M03 A3027 RMK A01 T00171028  RH  072%=      5-min Rain = 0
KSB1 121447Z 01004KT 02/M03 A3027 RMK A01 T00181028  RH  071%=      5-min Rain = 0
KSB1 121448Z 01003KT 02/M03 A3027 RMK A01 T00181028  RH  071%=      5-min Rain = 0
KSB1 121449Z 02003KT 02/M03 A3027 RMK A01 T00191028  RH  071%=      5-min Rain = 0
KSB1 121450Z 01004KT 02/M03 A3027 RMK A01 T00191027  RH  071%=      5-min Rain = 0
KSB1 121451Z 01004KT 02/M03 A3027 RMK A01 T00191028  RH  071%=      5-min Rain = 0
KSB1 121452Z 02004KT 02/M03 A3027 RMK A01 T00201027  RH  071%=      5-min Rain = 0
KSB1 121453Z 02004KT 02/M03 A3027 RMK A01 T00201027  RH  071%=      5-min Rain = 0
KSB1 121454Z 01004KT 02/M03 A3027 RMK A01 T00211027  RH  071%=      5-min Rain = 0
KSB1 121455Z 01004KT 02/M03 A3027 RMK A01 T00211027  RH  070%=      5-min Rain = 0
KSB1 121456Z 01004KT 02/M03 A3027 RMK A01 T00211026  RH  071%=      5-min Rain = 0
KSB1 121457Z 01004KT 02/M03 A3027 RMK A01 T00221026  RH  070%=      5-min Rain = 0
KSB1 121458Z 01004KT 02/M03 A3027 RMK A01 T00221027  RH  070%=      5-min Rain = 0
KSB1 121459Z 01004KT 02/M03 A3027 RMK A01 T00221026  RH  070%=      5-min Rain = 0
KSB1 121500Z 01004KT 02/M03 A3027 RMK A01 T00231026  RH  070%=      5-min Rain = 0
KSB1 121501Z 00003KT 02/M03 A3027 RMK A01 T00231026  RH  070%=      5-min Rain = 0
KSB1 121502Z 36003KT 02/M03 A3027 RMK A01 T00241025  RH  070%=      5-min Rain = 0
KSB1 121503Z 00003KT 03/M03 A3027 RMK A01 T00251025  RH  070%=      5-min Rain = 0
KSB1 121504Z 00003KT 03/M03 A3027 RMK A01 T00251025  RH  069%=      5-min Rain = 0
KSB1 121505Z 01003KT 03/M03 A3027 RMK A01 T00251025  RH  069%=      5-min Rain = 0
KSB1 121506Z 01003KT 03/M02 A3027 RMK A01 T00261024  RH  069%=      5-min Rain = 0
KSB1 121507Z 01003KT 03/M02 A3027 RMK A01 T00271024  RH  069%=      5-min Rain = 0
KSB1 121508Z 02003KT 03/M02 A3028 RMK A01 T00271024  RH  069%=      5-min Rain = 0
KSB1 121509Z 02004KT 03/M02 A3028 RMK A01 T00281024  RH  069%=      5-min Rain = 0
KSB1 121510Z 02004KT 03/M03 A3028 RMK A01 T00271025  RH  069%=      5-min Rain = 0
KSB1 121511Z 02004KT 03/M02 A3028 RMK A01 T00281024  RH  069%=      5-min Rain = 0
KSB1 121512Z 01004KT 03/M02 A3028 RMK A01 T00281024  RH  068%=      5-min Rain = 0
KSB1 121513Z 02004KT 03/M02 A3028 RMK A01 T00291024  RH  068%=      5-min Rain = 0
KSB1 121514Z 01003KT 03/M02 A3028 RMK A01 T00281024  RH  068%=      5-min Rain = 0
KSB1 121515Z 00004KT 03/M02 A3028 RMK A01 T00291024  RH  068%=      5-min Rain = 0
KSB1 121516Z 00004KT 03/M02 A3028 RMK A01 T00291023  RH  068%=      5-min Rain = 0
KSB1 121517Z 00003KT 03/M02 A3028 RMK A01 T00301023  RH  068%=      5-min Rain = 0
KSB1 121518Z 00003KT 03/M02 A3028 RMK A01 T00311023  RH  068%=      5-min Rain = 0
KSB1 121519Z 35003KT 03/M02 A3028 RMK A01 T00311023  RH  068%=      5-min Rain = 0
KSB1 121520Z 35003KT 03/M02 A3028 RMK A01 T00321021  RH  068%=      5-min Rain = 0
KSB1 121521Z 35002KT 03/M02 A3028 RMK A01 T00341021  RH  068%=      5-min Rain = 0
KSB1 121522Z 35002KT 04/M02 A3028 RMK A01 T00351020  RH  067%=      5-min Rain = 0
KSB1 121523Z 35002KT 04/M02 A3028 RMK A01 T00361020  RH  067%=      5-min Rain = 0
KSB1 121524Z 35002KT 04/M02 A3028 RMK A01 T00381020  RH  066%=      5-min Rain = 0
KSB1 121525Z 35002KT 04/M02 A3028 RMK A01 T00381020  RH  066%=      5-min Rain = 0
KSB1 121526Z 35001KT 04/M02 A3028 RMK A01 T00391019  RH  065%=      5-min Rain = 0
KSB1 121527Z 01001KT 04/M02 A3028 RMK A01 T00411019  RH  065%=      5-min Rain = 0
KSB1 121528Z 01001KT 04/M02 A3029 RMK A01 T00411019  RH  065%=      5-min Rain = 0
KSB1 121529Z 02002KT 04/M02 A3029 RMK A01 T00431018  RH  064%=      5-min Rain = 0
KSB1 121530Z 02002KT 04/M02 A3029 RMK A01 T00441018  RH  064%=      5-min Rain = 0
KSB1 121531Z 03002KT 05/M02 A3029 RMK A01 T00451019  RH  064%=      5-min Rain = 0
KSB1 121532Z 03001KT 05/M02 A3029 RMK A01 T00451019  RH  064%=      5-min Rain = 0
KSB1 121533Z 04001KT 05/M02 A3029 RMK A01 T00451019  RH  063%=      5-min Rain = 0
KSB1 121534Z 04000KT 05/M02 A3029 RMK A01 T00451019  RH  063%=      5-min Rain = 0
KSB1 121535Z 00000KT 05/M02 A3029 RMK A01 T00471018  RH  063%=      5-min Rain = 0
KSB1 121536Z 00000KT 05/M02 A3029 RMK A01 T00491018  RH  062%=      5-min Rain = 0
KSB1 121537Z 16000KT 05/M02 A3029 RMK A01 T00511017  RH  061%=      5-min Rain = 0
KSB1 121538Z 17000KT 05/M02 A3029 RMK A01 T00541017  RH  060%=      5-min Rain = 0
KSB1 121539Z 00000KT 06/M02 A3029 RMK A01 T00561017  RH  060%=      5-min Rain = 0
KSB1 121540Z 19000KT 06/M02 A3029 RMK A01 T00581017  RH  059%=      5-min Rain = 0
KSB1 121541Z 24000KT 06/M02 A3029 RMK A01 T00591017  RH  058%=      5-min Rain = 0
KSB1 121542Z 21000KT 06/M02 A3029 RMK A01 T00611017  RH  057%=      5-min Rain = 0
KSB1 121543Z 22000KT 06/M02 A3029 RMK A01 T00611018  RH  057%=      5-min Rain = 0
KSB1 121544Z 28000KT 06/M02 A3029 RMK A01 T00621018  RH  057%=      5-min Rain = 0
KSB1 121545Z 31001KT 06/M02 A3029 RMK A01 T00631018  RH  056%=      5-min Rain = 0
KSB1 121546Z 31001KT 06/M02 A3029 RMK A01 T00641017  RH  056%=      5-min Rain = 0
KSB1 121547Z 29001KT 07/M02 A3029 RMK A01 T00651016  RH  056%=      5-min Rain = 0
KSB1 121548Z 27002KT 07/M02 A3029 RMK A01 T00651016  RH  056%=      5-min Rain = 0
KSB1 121549Z 21001KT 07/M02 A3029 RMK A01 T00651016  RH  056%=      5-min Rain = 0
KSB1 121550Z 27002KT 07/M01 A3029 RMK A01 T00671014  RH  056%=      5-min Rain = 0
KSB1 121551Z 23002KT 07/M01 A3029 RMK A01 T00691014  RH  055%=      5-min Rain = 0
KSB1 121552Z 25003KT 07/M01 A3029 RMK A01 T00721014  RH  054%=      5-min Rain = 0
KSB1 121553Z 25003KT 07/M02 A3029 RMK A01 T00721018  RH  053%=      5-min Rain = 0
KSB1 121554Z 25003KT 07/M02 A3029 RMK A01 T00731021  RH  051%=      5-min Rain = 0
KSB1 121555Z 25003KT 07/M02 A3029 RMK A01 T00731021  RH  051%=      5-min Rain = 0
KSB1 121556Z 25004KT 07/M02 A3029 RMK A01 T00731021  RH  051%=      5-min Rain = 0
KSB1 121557Z 24004KT 07/M02 A3029 RMK A01 T00741021  RH  051%=      5-min Rain = 0
KSB1 121558Z 24003KT 07/M02 A3029 RMK A01 T00731021  RH  051%=      5-min Rain = 0
KSB1 121559Z 24002KT 07/M02 A3029 RMK A01 T00741020  RH  051%=      5-min Rain = 0
KSB1 121600Z 24003KT 08/M02 A3029 RMK A01 T00751021  RH  051%=      5-min Rain = 0
KSB1 121601Z 23003KT 08/M02 A3029 RMK A01 T00761020  RH  051%=      5-min Rain = 0
KSB1 121602Z 22003KT 08/M02 A3028 RMK A01 T00771020  RH  050%=      5-min Rain = 0
KSB1 121603Z 22003KT 08/M02 A3029 RMK A01 T00781020  RH  050%=      5-min Rain = 0
KSB1 121604Z 22004KT 08/M02 A3028 RMK A01 T00791021  RH  049%=      5-min Rain = 0
KSB1 121605Z 21004KT 08/M02 A3028 RMK A01 T00781021  RH  049%=      5-min Rain = 0
KSB1 121606Z 21005KT 08/M02 A3028 RMK A01 T00791018  RH  050%=      5-min Rain = 0
KSB1 121607Z 23005KT 08/M02 A3028 RMK A01 T00801019  RH  049%=      5-min Rain = 0
KSB1 121608Z 22005KT 08/M02 A3028 RMK A01 T00811019  RH  049%=      5-min Rain = 0
KSB1 121609Z 23005KT 08/M02 A3028 RMK A01 T00831021  RH  048%=      5-min Rain = 0
KSB1 121610Z 23005KT 08/M03 A3028 RMK A01 T00831026  RH  046%=      5-min Rain = 0
KSB1 121611Z 23005KT 08/M02 A3028 RMK A01 T00841023  RH  047%=      5-min Rain = 0
KSB1 121612Z 24005KT 08/M02 A3028 RMK A01 T00841024  RH  046%=      5-min Rain = 0
KSB1 121613Z 23005KT 09/M02 A3028 RMK A01 T00861022  RH  047%=      5-min Rain = 0
KSB1 121614Z 23005KT 09/M02 A3028 RMK A01 T00871023  RH  046%=      5-min Rain = 0
KSB1 121615Z 25004KT 09/M02 A3028 RMK A01 T00871024  RH  046%=      5-min Rain = 0
KSB1 121616Z 25004KT 09/M03 A3028 RMK A01 T00881028  RH  044%=      5-min Rain = 0
KSB1 121617Z 23004KT 09/M03 A3028 RMK A01 T00891027  RH  044%=      5-min Rain = 0
KSB1 121618Z 22004KT 09/M03 A3028 RMK A01 T00891025  RH  045%=      5-min Rain = 0
KSB1 121619Z 22005KT 09/M02 A3028 RMK A01 T00871017  RH  048%=      5-min Rain = 0
KSB1 121620Z 22005KT 09/M02 A3028 RMK A01 T00861015  RH  049%=      5-min Rain = 0
KSB1 121621Z 22004KT 09/M02 A3028 RMK A01 T00851015  RH  050%=      5-min Rain = 0
KSB1 121622Z 21005KT 08/M02 A3028 RMK A01 T00841015  RH  050%=      5-min Rain = 0
KSB1 121623Z 20006KT 08/M01 A3028 RMK A01 T00841014  RH  050%=      5-min Rain = 0
KSB1 121624Z 21005KT 08/M02 A3028 RMK A01 T00841015  RH  050%=      5-min Rain = 0
KSB1 121625Z 20005KT 09/M02 A3028 RMK A01 T00851015  RH  049%=      5-min Rain = 0
KSB1 121626Z 21005KT 09/M02 A3028 RMK A01 T00851015  RH  049%=      5-min Rain = 0
KSB1 121627Z 22005KT 09/M01 A3028 RMK A01 T00861014  RH  049%=      5-min Rain = 0
KSB1 121628Z 22005KT 09/M02 A3028 RMK A01 T00871015  RH  049%=      5-min Rain = 0
KSB1 121629Z 21004KT 09/M02 A3029 RMK A01 T00871016  RH  049%=      5-min Rain = 0
KSB1 121630Z 22004KT 09/M02 A3029 RMK A01 T00861016  RH  049%=      5-min Rain = 0
KSB1 121631Z 22003KT 09/M02 A3029 RMK A01 T00871015  RH  049%=      5-min Rain = 0
KSB1 121632Z 22004KT 09/M01 A3029 RMK A01 T00891014  RH  048%=      5-min Rain = 0
KSB1 121633Z 22003KT 09/M01 A3029 RMK A01 T00911013  RH  048%=      5-min Rain = 0
KSB1 121634Z 25003KT 09/M01 A3029 RMK A01 T00921013  RH  048%=      5-min Rain = 0
KSB1 121635Z 25003KT 10/M01 A3029 RMK A01 T00951011  RH  048%=      5-min Rain = 0
KSB1 121636Z 27003KT 10/M01 A3028 RMK A01 T00981012  RH  046%=      5-min Rain = 0
KSB1 121637Z 29005KT 10/M01 A3028 RMK A01 T01011014  RH  045%=      5-min Rain = 0
KSB1 121638Z 29006KT 10/M02 A3028 RMK A01 T01041021  RH  041%=      5-min Rain = 0
KSB1 121639Z 28005KT 11/M02 A3028 RMK A01 T01081022  RH  040%=      5-min Rain = 0
KSB1 121640Z 29003KT 11/M02 A3028 RMK A01 T01111023  RH  039%=      5-min Rain = 0
KSB1 121641Z 29004KT 11/M02 A3028 RMK A01 T01131021  RH  039%=      5-min Rain = 0
KSB1 121642Z 29002KT 12/M02 A3028 RMK A01 T01151024  RH  038%=      5-min Rain = 0
KSB1 121643Z 30004KT 12/M02 A3028 RMK A01 T01161024  RH  037%=      5-min Rain = 0
KSB1 121644Z 30005KT 12/M03 A3028 RMK A01 T01161029  RH  036%=      5-min Rain = 0
KSB1 121645Z 28005KT 12/M03 A3028 RMK A01 T01161030  RH  036%=      5-min Rain = 0
KSB1 121646Z 28005KT 12/M03 A3028 RMK A01 T01171028  RH  036%=      5-min Rain = 0
KSB1 121647Z 30003KT 12/M02 A3028 RMK A01 T01201024  RH  037%=      5-min Rain = 0
KSB1 121648Z 29004KT 12/M03 A3028 RMK A01 T01231026  RH  035%=      5-min Rain = 0
KSB1 121649Z 27004KT 12/M03 A3029 RMK A01 T01231029  RH  035%=      5-min Rain = 0
KSB1 121650Z 32004KT 12/M03 A3028 RMK A01 T01241026  RH  035%=      5-min Rain = 0
KSB1 121651Z 29003KT 13/M03 A3028 RMK A01 T01251026  RH  035%=      5-min Rain = 0
KSB1 121652Z 29005KT 13/M03 A3028 RMK A01 T01271028  RH  034%=      5-min Rain = 0
KSB1 121653Z 28005KT 13/M03 A3028 RMK A01 T01261028  RH  034%=      5-min Rain = 0
KSB1 121654Z 29003KT 13/M03 A3028 RMK A01 T01261028  RH  034%=      5-min Rain = 0
KSB1 121655Z 28008KT 13/M03 A3028 RMK A01 T01281027  RH  034%=      5-min Rain = 0
KSB1 121656Z 27009KT 13/M03 A3028 RMK A01 T01281029  RH  033%=      5-min Rain = 0
KSB1 121657Z 27011KT 13/M03 A3028 RMK A01 T01251031  RH  033%=      5-min Rain = 0
KSB1 121658Z 27012KT 12/M03 A3028 RMK A01 T01241031  RH  034%=      5-min Rain = 0
KSB1 121659Z 28012KT 12/M03 A3028 RMK A01 T01241031  RH  034%=      5-min Rain = 0
KSB1 121700Z 28013KT 12/M03 A3028 RMK A01 T01241031  RH  034%=      5-min Rain = 0
KSB1 121701Z 28011KT 12/M03 A3028 RMK A01 T01241031  RH  034%=      5-min Rain = 0
KSB1 121702Z 28011KT 12/M03 A3028 RMK A01 T01241031  RH  034%=      5-min Rain = 0
KSB1 121703Z 28011KT 12/M03 A3028 RMK A01 T01231031  RH  034%=      5-min Rain = 0
KSB1 121704Z 28011KT 12/M03 A3028 RMK A01 T01231031  RH  034%=      5-min Rain = 0
KSB1 121705Z 28010KT 12/M03 A3028 RMK A01 T01231031  RH  034%=      5-min Rain = 0
KSB1 121706Z 29012KT 13/M03 A3028 RMK A01 T01251030  RH  034%=      5-min Rain = 0
KSB1 121707Z 29013KT 13/M03 A3028 RMK A01 T01261031  RH  033%=      5-min Rain = 0
KSB1 121708Z 28011KT 12/M03 A3028 RMK A01 T01241032  RH  033%=      5-min Rain = 0
KSB1 121709Z 27013KT 12/M03 A3028 RMK A01 T01241031  RH  034%=      5-min Rain = 0
KSB1 121710Z 27011KT 13/M03 A3028 RMK A01 T01251031  RH  034%=      5-min Rain = 0
KSB1 121711Z 27011KT 13/M03 A3028 RMK A01 T01251031  RH  034%=      5-min Rain = 0
KSB1 121712Z 27011KT 13/M03 A3028 RMK A01 T01251031  RH  034%=      5-min Rain = 0
KSB1 121713Z 28012KT 13/M03 A3028 RMK A01 T01251031  RH  034%=      5-min Rain = 0
KSB1 121714Z 28012KT 13/M03 A3028 RMK A01 T01261030  RH  034%=      5-min Rain = 0
KSB1 121715Z 27010KT 13/M03 A3028 RMK A01 T01261029  RH  034%=      5-min Rain = 0
KSB1 121716Z 25007KT 13/M03 A3028 RMK A01 T01271027  RH  034%=      5-min Rain = 0
KSB1 121717Z 26008KT 13/M03 A3028 RMK A01 T01281028  RH  034%=      5-min Rain = 0
KSB1 121718Z 27011KT 13/M03 A3028 RMK A01 T01261030  RH  033%=      5-min Rain = 0
KSB1 121719Z 26012KT 13/M03 A3027 RMK A01 T01251031  RH  033%=      5-min Rain = 0
KSB1 121720Z 26012KT 13/M03 A3027 RMK A01 T01251032  RH  033%=      5-min Rain = 0
KSB1 121721Z 26013KT 13/M03 A3027 RMK A01 T01251032  RH  033%=      5-min Rain = 0
KSB1 121722Z 27012KT 13/M03 A3027 RMK A01 T01271032  RH  033%=      5-min Rain = 0
KSB1 121723Z 29010G15KT 13/M03 A3028 RMK A01 T01291031  RH  033%=      5-min Rain = 0
KSB1 121724Z 27011KT 13/M03 A3028 RMK A01 T01311030  RH  032%=      5-min Rain = 0
KSB1 121725Z 27011KT 13/M03 A3028 RMK A01 T01321033  RH  032%=      5-min Rain = 0
KSB1 121726Z 27011KT 13/M03 A3028 RMK A01 T01301032  RH  032%=      5-min Rain = 0
KSB1 121727Z 26009KT 13/M03 A3028 RMK A01 T01301032  RH  032%=      5-min Rain = 0
KSB1 121728Z 28012KT 13/M03 A3027 RMK A01 T01301032  RH  032%=      5-min Rain = 0
KSB1 121729Z 26011KT 13/M03 A3027 RMK A01 T01291032  RH  032%=      5-min Rain = 0
KSB1 121730Z 24007KT 13/M03 A3028 RMK A01 T01301030  RH  033%=      5-min Rain = 0
KSB1 121731Z 26010KT 13/M03 A3028 RMK A01 T01321028  RH  033%=      5-min Rain = 0
KSB1 121732Z 27011KT 13/M03 A3028 RMK A01 T01331032  RH  032%=      5-min Rain = 0
KSB1 121733Z 28009KT 13/M03 A3028 RMK A01 T01301033  RH  032%=      5-min Rain = 0
KSB1 121734Z 28009KT 13/M03 A3028 RMK A01 T01281034  RH  032%=      5-min Rain = 0
KSB1 121735Z 28008KT 13/M03 A3028 RMK A01 T01271032  RH  033%=      5-min Rain = 0
KSB1 121736Z 27012KT 13/M03 A3028 RMK A01 T01291030  RH  033%=      5-min Rain = 0
KSB1 121737Z 25011KT 13/M03 A3028 RMK A01 T01311030  RH  033%=      5-min Rain = 0
KSB1 121738Z 25009KT 13/M03 A3028 RMK A01 T01301032  RH  032%=      5-min Rain = 0
KSB1 121739Z 27010KT 13/M03 A3028 RMK A01 T01301030  RH  033%=      5-min Rain = 0
KSB1 121740Z 24009KT 13/M03 A3028 RMK A01 T01311032  RH  032%=      5-min Rain = 0
KSB1 121741Z 27012KT 13/M03 A3028 RMK A01 T01321031  RH  032%=      5-min Rain = 0
KSB1 121742Z 27013KT 13/M03 A3027 RMK A01 T01321032  RH  032%=      5-min Rain = 0
KSB1 121743Z 26012KT 13/M03 A3027 RMK A01 T01311033  RH  032%=      5-min Rain = 0
KSB1 121744Z 27009KT 13/M03 A3027 RMK A01 T01301033  RH  032%=      5-min Rain = 0
KSB1 121745Z 26007KT 13/M03 A3027 RMK A01 T01291034  RH  032%=      5-min Rain = 0
KSB1 121746Z 28007KT 13/M03 A3027 RMK A01 T01281033  RH  032%=      5-min Rain = 0
KSB1 121747Z 27010KT 13/M03 A3027 RMK A01 T01291031  RH  033%=      5-min Rain = 0
KSB1 121748Z 26009KT 13/M03 A3027 RMK A01 T01321032  RH  032%=      5-min Rain = 0
KSB1 121749Z 29010KT 13/M03 A3027 RMK A01 T01311033  RH  032%=      5-min Rain = 0
KSB1 121750Z 30011KT 13/M03 A3027 RMK A01 T01311033  RH  032%=      5-min Rain = 0
KSB1 121751Z 27009KT 13/M03 A3027 RMK A01 T01311032  RH  032%=      5-min Rain = 0
KSB1 121752Z 27009KT 13/M03 A3027 RMK A01 T01311031  RH  032%=      5-min Rain = 0
KSB1 121753Z 29008KT 13/M03 A3027 RMK A01 T01321031  RH  032%=      5-min Rain = 0
KSB1 121754Z 28011KT 13/M03 A3027 RMK A01 T01341030  RH  032%=      5-min Rain = 0
KSB1 121755Z 28009KT 13/M03 A3027 RMK A01 T01331031  RH  032%=      5-min Rain = 0
KSB1 121756Z 29012KT 13/M03 A3027 RMK A01 T01331031  RH  032%=      5-min Rain = 0
KSB1 121757Z 29013KT 13/M03 A3027 RMK A01 T01321032  RH  032%=      5-min Rain = 0
KSB1 121758Z 29009G14KT 13/M03 A3027 RMK A01 T01311032  RH  032%=      5-min Rain = 0
KSB1 121759Z 29013KT 13/M03 A3027 RMK A01 T01331030  RH  032%=      5-min Rain = 0
KSB1 121800Z 28011KT 13/M03 A3027 RMK A01 T01331031  RH  032%=      5-min Rain = 0
KSB1 121801Z 28014KT 13/M03 A3027 RMK A01 T01341030  RH  032%=      5-min Rain = 0
KSB1 121802Z 27013KT 14/M03 A3027 RMK A01 T01361032  RH  031%=      5-min Rain = 0
KSB1 121803Z 28011KT 14/M03 A3027 RMK A01 T01361032  RH  031%=      5-min Rain = 0
KSB1 121804Z 28012KT 14/M03 A3026 RMK A01 T01371031  RH  031%=      5-min Rain = 0
KSB1 121805Z 27010KT 14/M03 A3026 RMK A01 T01361032  RH  031%=      5-min Rain = 0
KSB1 121806Z 29010KT 13/M03 A3026 RMK A01 T01341032  RH  031%=      5-min Rain = 0
KSB1 121807Z 28010KT 13/M03 A3026 RMK A01 T01341032  RH  031%=      5-min Rain = 0
KSB1 121808Z 26009KT 13/M03 A3026 RMK A01 T01341033  RH  031%=      5-min Rain = 0
KSB1 121809Z 28008KT 14/M03 A3026 RMK A01 T01361031  RH  031%=      5-min Rain = 0
KSB1 121810Z 26009KT 14/M03 A3026 RMK A01 T01391031  RH  031%=      5-min Rain = 0
KSB1 121811Z 25011KT 14/M03 A3026 RMK A01 T01391033  RH  030%=      5-min Rain = 0
KSB1 121812Z 25010KT 14/M04 A3026 RMK A01 T01371036  RH  030%=      5-min Rain = 0
KSB1 121813Z 26009KT 14/M04 A3026 RMK A01 T01361035  RH  030%=      5-min Rain = 0
KSB1 121814Z 28010KT 14/M04 A3026 RMK A01 T01361035  RH  030%=      5-min Rain = 0
KSB1 121815Z 27012KT 14/M03 A3026 RMK A01 T01381033  RH  030%=      5-min Rain = 0
KSB1 121816Z 28010KT 14/M03 A3025 RMK A01 T01381034  RH  030%=      5-min Rain = 0
KSB1 121817Z 28008KT 14/M03 A3025 RMK A01 T01371033  RH  031%=      5-min Rain = 0
KSB1 121818Z 27011KT 14/M03 A3025 RMK A01 T01381032  RH  031%=      5-min Rain = 0
KSB1 121819Z 25011KT 14/M04 A3025 RMK A01 T01371037  RH  030%=      5-min Rain = 0
KSB1 121820Z 25010KT 14/M04 A3025 RMK A01 T01361038  RH  030%=      5-min Rain = 0
KSB1 121821Z 28007KT 14/M04 A3025 RMK A01 T01361040  RH  029%=      5-min Rain = 0
KSB1 121822Z 27009KT 14/M04 A3025 RMK A01 T01371039  RH  029%=      5-min Rain = 0
KSB1 121823Z 27009KT 14/M04 A3025 RMK A01 T01391035  RH  030%=      5-min Rain = 0
KSB1 121824Z 27010KT 14/M03 A3025 RMK A01 T01411034  RH  030%=      5-min Rain = 0
KSB1 121825Z 26009KT 14/M04 A3025 RMK A01 T01411037  RH  029%=      5-min Rain = 0
KSB1 121826Z 25006KT 14/M04 A3025 RMK A01 T01371040  RH  029%=      5-min Rain = 0
KSB1 121827Z 25010KT 14/M04 A3024 RMK A01 T01371037  RH  030%=      5-min Rain = 0
KSB1 121828Z 25012KT 14/M04 A3024 RMK A01 T01391040  RH  029%=      5-min Rain = 0
KSB1 121829Z 26013KT 14/M04 A3024 RMK A01 T01381039  RH  029%=      5-min Rain = 0
KSB1 121830Z 25011G16KT 14/M04 A3024 RMK A01 T01371040  RH  029%=      5-min Rain = 0
KSB1 121831Z 25011KT 14/M04 A3024 RMK A01 T01351040  RH  029%=      5-min Rain = 0
KSB1 121832Z 26011KT 14/M04 A3024 RMK A01 T01371039  RH  029%=      5-min Rain = 0
KSB1 121833Z 26012KT 14/M04 A3024 RMK A01 T01381041  RH  029%=      5-min Rain = 0
KSB1 121834Z 26011KT 14/M04 A3024 RMK A01 T01381042  RH  028%=      5-min Rain = 0
KSB1 121835Z 26012KT 14/M04 A3024 RMK A01 T01401041  RH  028%=      5-min Rain = 0
KSB1 121836Z 26010KT 14/M04 A3023 RMK A01 T01421040  RH  028%=      5-min Rain = 0
KSB1 121837Z 25011KT 14/M04 A3023 RMK A01 T01411041  RH  028%=      5-min Rain = 0
KSB1 121838Z 26010KT 14/M04 A3023 RMK A01 T01411042  RH  028%=      5-min Rain = 0
KSB1 121839Z 24009KT 14/M04 A3023 RMK A01 T01421040  RH  028%=      5-min Rain = 0
KSB1 121840Z 25011KT 15/M04 A3023 RMK A01 T01451040  RH  027%=      5-min Rain = 0
KSB1 121841Z 27012KT 15/M04 A3023 RMK A01 T01461043  RH  027%=      5-min Rain = 0
KSB1 121842Z 27011KT 15/M05 A3023 RMK A01 T01461046  RH  026%=      5-min Rain = 0
KSB1 121843Z 27011G16KT 15/M05 A3022 RMK A01 T01451047  RH  026%=      5-min Rain = 0
KSB1 121844Z 27013KT 14/M05 A3022 RMK A01 T01441050  RH  026%=      5-min Rain = 0
KSB1 121845Z 27013KT 14/M05 A3022 RMK A01 T01441049  RH  026%=      5-min Rain = 0
KSB1 121846Z 27012KT 14/M05 A3022 RMK A01 T01431046  RH  027%=      5-min Rain = 0
KSB1 121847Z 26011G17KT 14/M05 A3022 RMK A01 T01431046  RH  027%=      5-min Rain = 0
KSB1 121848Z 27014KT 14/M05 A3021 RMK A01 T01441049  RH  026%=      5-min Rain = 0
KSB1 121849Z 27012KT 15/M05 A3021 RMK A01 T01451054  RH  025%=      5-min Rain = 0
KSB1 121850Z 26015KT 15/M05 A3021 RMK A01 T01461053  RH  025%=      5-min Rain = 0
KSB1 121851Z 26014KT 15/M05 A3021 RMK A01 T01451053  RH  025%=      5-min Rain = 0
KSB1 121852Z 26013KT 14/M05 A3021 RMK A01 T01431050  RH  026%=      5-min Rain = 0
KSB1 121853Z 26013KT 14/M05 A3021 RMK A01 T01421049  RH  026%=      5-min Rain = 0
KSB1 121854Z 27014KT 14/M05 A3021 RMK A01 T01421049  RH  026%=      5-min Rain = 0
KSB1 121855Z 28015KT 14/M05 A3021 RMK A01 T01441049  RH  026%=      5-min Rain = 0
KSB1 121856Z 28015KT 15/M05 A3021 RMK A01 T01461052  RH  025%=      5-min Rain = 0
KSB1 121857Z 28014KT 15/M05 A3021 RMK A01 T01451052  RH  025%=      5-min Rain = 0
KSB1 121858Z 27013KT 15/M05 A3021 RMK A01 T01451054  RH  025%=      5-min Rain = 0
KSB1 121859Z 27012KT 15/M05 A3021 RMK A01 T01471050  RH  025%=      5-min Rain = 0
KSB1 121900Z 27012KT 15/M05 A3021 RMK A01 T01481049  RH  025%=      5-min Rain = 0
KSB1 121901Z 28014KT 15/M05 A302 RMK A01 T01491048  RH  025%=      5-min Rain = 0
KSB1 121902Z 29016KT 15/M05 A302 RMK A01 T01491051  RH  025%=      5-min Rain = 0
KSB1 121903Z 28016KT 15/M05 A302 RMK A01 T01471053  RH  025%=      5-min Rain = 0
KSB1 121904Z 29014KT 15/M05 A302 RMK A01 T01471051  RH  025%=      5-min Rain = 0
KSB1 121905Z 29014KT 15/M05 A302 RMK A01 T01481052  RH  025%=      5-min Rain = 0
KSB1 121906Z 28014G19KT 15/M05 A302 RMK A01 T01481052  RH  025%=      5-min Rain = 0
KSB1 121907Z 28016KT 15/M05 A302 RMK A01 T01511051  RH  024%=      5-min Rain = 0
KSB1 121908Z 27015KT 15/M05 A302 RMK A01 T01521054  RH  024%=      5-min Rain = 0
KSB1 121909Z 27015KT 15/M05 A302 RMK A01 T01531054  RH  024%=      5-min Rain = 0
KSB1 121910Z 27015KT 15/M05 A302 RMK A01 T01531052  RH  024%=      5-min Rain = 0
KSB1 121911Z 29016KT 15/M05 A302 RMK A01 T01531052  RH  024%=      5-min Rain = 0
KSB1 121912Z 29013KT 15/M05 A302 RMK A01 T01511053  RH  024%=      5-min Rain = 0
KSB1 121913Z 28013KT 15/M05 A302 RMK A01 T01511050  RH  025%=      5-min Rain = 0
KSB1 121914Z 29015KT 15/M05 A302 RMK A01 T01531050  RH  024%=      5-min Rain = 0
KSB1 121915Z 29019KT 15/M06 A302 RMK A01 T01541055  RH  023%=      5-min Rain = 0
KSB1 121916Z 29013KT 15/M06 A302 RMK A01 T01501061  RH  023%=      5-min Rain = 0
KSB1 121917Z 29014KT 15/M06 A302 RMK A01 T01501057  RH  023%=      5-min Rain = 0
KSB1 121918Z 29014KT 15/M06 A302 RMK A01 T01521055  RH  024%=      5-min Rain = 0
KSB1 121919Z 28017KT 15/M06 A3019 RMK A01 T01541055  RH  023%=      5-min Rain = 0
KSB1 121920Z 28014KT 15/M06 A3019 RMK A01 T01531055  RH  023%=      5-min Rain = 0
KSB1 121921Z 30015KT 15/M05 A3019 RMK A01 T01541054  RH  023%=      5-min Rain = 0
KSB1 121922Z 29014KT 15/M06 A3019 RMK A01 T01541055  RH  023%=      5-min Rain = 0
KSB1 121923Z 29016KT 15/M05 A3019 RMK A01 T01531054  RH  023%=      5-min Rain = 0
KSB1 121924Z 30017KT 15/M06 A3019 RMK A01 T01531055  RH  023%=      5-min Rain = 0
KSB1 121925Z 30017KT 15/M06 A3019 RMK A01 T01501055  RH  024%=      5-min Rain = 0
KSB1 121926Z 28016KT 15/M05 A3019 RMK A01 T01491053  RH  024%=      5-min Rain = 0
KSB1 121927Z 28018KT 15/M06 A3019 RMK A01 T01511055  RH  024%=      5-min Rain = 0
KSB1 121928Z 27015KT 15/M06 A3019 RMK A01 T01521058  RH  023%=      5-min Rain = 0
KSB1 121929Z 28016KT 15/M06 A3019 RMK A01 T01541058  RH  023%=      5-min Rain = 0
KSB1 121930Z 28018KT 15/M06 A3018 RMK A01 T01541056  RH  023%=      5-min Rain = 0
KSB1 121931Z 28017KT 15/M06 A3018 RMK A01 T01521058  RH  023%=      5-min Rain = 0
KSB1 121932Z 29017KT 15/M06 A3018 RMK A01 T01521058  RH  023%=      5-min Rain = 0
KSB1 121933Z 28014KT 15/M06 A3018 RMK A01 T01531058  RH  023%=      5-min Rain = 0
KSB1 121934Z 27015KT 16/M06 A3018 RMK A01 T01551057  RH  023%=      5-min Rain = 0
KSB1 121935Z 28015KT 16/M06 A3018 RMK A01 T01561057  RH  023%=      5-min Rain = 0
KSB1 121936Z 28016KT 16/M06 A3018 RMK A01 T01571057  RH  022%=      5-min Rain = 0
KSB1 121937Z 28016KT 16/M06 A3018 RMK A01 T01551057  RH  023%=      5-min Rain = 0
KSB1 121938Z 27016KT 16/M06 A3018 RMK A01 T01551060  RH  022%=      5-min Rain = 0
KSB1 121939Z 28016KT 16/M06 A3018 RMK A01 T01551062  RH  022%=      5-min Rain = 0
KSB1 121940Z 28016KT 16/M06 A3018 RMK A01 T01551063  RH  022%=      5-min Rain = 0
KSB1 121941Z 28016KT 15/M06 A3018 RMK A01 T01541064  RH  022%=      5-min Rain = 0
KSB1 121942Z 28014KT 15/M06 A3018 RMK A01 T01541062  RH  022%=      5-min Rain = 0
KSB1 121943Z 28015KT 15/M06 A3018 RMK A01 T01541062  RH  022%=      5-min Rain = 0
KSB1 121944Z 28014KT 15/M06 A3018 RMK A01 T01541061  RH  022%=      5-min Rain = 0
KSB1 121945Z 28015KT 16/M06 A3018 RMK A01 T01551063  RH  022%=      5-min Rain = 0
KSB1 121946Z 28016KT 15/M07 A3018 RMK A01 T01541065  RH  022%=      5-min Rain = 0
KSB1 121947Z 29016KT 15/M07 A3018 RMK A01 T01541066  RH  021%=      5-min Rain = 0
KSB1 121948Z 28010KT 15/M06 A3018 RMK A01 T01541064  RH  022%=      5-min Rain = 0
KSB1 121949Z 28013KT 16/M07 A3018 RMK A01 T01561065  RH  021%=      5-min Rain = 0
KSB1 121950Z 27013KT 16/M07 A3018 RMK A01 T01561066  RH  021%=      5-min Rain = 0
KSB1 121951Z 26013KT 16/M06 A3018 RMK A01 T01551064  RH  021%=      5-min Rain = 0
KSB1 121952Z 27012KT 16/M07 A3018 RMK A01 T01561065  RH  021%=      5-min Rain = 0
KSB1 121953Z 28014KT 16/M07 A3018 RMK A01 T01581069  RH  020%=      5-min Rain = 0
KSB1 121954Z 28014KT 16/M07 A3018 RMK A01 T01571072  RH  020%=      5-min Rain = 0
KSB1 121955Z 27014KT 16/M07 A3017 RMK A01 T01561069  RH  021%=      5-min Rain = 0
KSB1 121956Z 27013KT 16/M07 A3017 RMK A01 T01581068  RH  020%=      5-min Rain = 0
KSB1 121957Z 28014KT 16/M07 A3017 RMK A01 T01591068  RH  020%=      5-min Rain = 0
KSB1 121958Z 28013KT 16/M07 A3017 RMK A01 T01571068  RH  021%=      5-min Rain = 0
KSB1 121959Z 26015KT 16/M07 A3017 RMK A01 T01561066  RH  021%=      5-min Rain = 0
KSB1 122000Z 27013KT 16/M06 A3017 RMK A01 T01561063  RH  022%=      5-min Rain = 0
KSB1 122001Z 29014KT 16/M06 A3017 RMK A01 T01571062  RH  022%=      5-min Rain = 0
KSB1 122002Z 28014KT 16/M07 A3017 RMK A01 T01561065  RH  021%=      5-min Rain = 0
KSB1 122003Z 27013KT 16/M07 A3017 RMK A01 T01561070  RH  020%=      5-min Rain = 0
KSB1 122004Z 28015KT 16/M07 A3017 RMK A01 T01571072  RH  020%=      5-min Rain = 0
KSB1 122005Z 29014KT 16/M07 A3017 RMK A01 T01571070  RH  020%=      5-min Rain = 0
KSB1 122006Z 29011KT 16/M07 A3017 RMK A01 T01561071  RH  020%=      5-min Rain = 0
KSB1 122007Z 28015KT 16/M07 A3017 RMK A01 T01551071  RH  020%=      5-min Rain = 0
KSB1 122008Z 28012KT 16/M07 A3017 RMK A01 T01551072  RH  020%=      5-min Rain = 0
KSB1 122009Z 28014KT 16/M07 A3017 RMK A01 T01581071  RH  020%=      5-min Rain = 0
KSB1 122010Z 28016KT 16/M07 A3017 RMK A01 T01601073  RH  020%=      5-min Rain = 0
KSB1 122011Z 28015KT 16/M07 A3017 RMK A01 T01581074  RH  020%=      5-min Rain = 0
KSB1 122012Z 28014KT 16/M07 A3017 RMK A01 T01561074  RH  020%=      5-min Rain = 0
KSB1 122013Z 28012KT 16/M07 A3017 RMK A01 T01561073  RH  020%=      5-min Rain = 0
KSB1 122014Z 29013KT 16/M07 A3017 RMK A01 T01581070  RH  020%=      5-min Rain = 0
KSB1 122015Z 28012KT 16/M07 A3017 RMK A01 T01591068  RH  020%=      5-min Rain = 0
KSB1 122016Z 28013KT 16/M07 A3017 RMK A01 T01591069  RH  020%=      5-min Rain = 0
KSB1 122017Z 26013KT 16/M07 A3016 RMK A01 T01571069  RH  020%=      5-min Rain = 0
KSB1 122018Z 27012KT 16/M07 A3016 RMK A01 T01581070  RH  020%=      5-min Rain = 0
KSB1 122019Z 27014KT 16/M07 A3016 RMK A01 T01591071  RH  020%=      5-min Rain = 0
KSB1 122020Z 27015KT 16/M07 A3016 RMK A01 T01601070  RH  020%=      5-min Rain = 0
KSB1 122021Z 27014KT 16/M07 A3016 RMK A01 T01601070  RH  020%=      5-min Rain = 0
KSB1 122022Z 26015KT 16/M07 A3016 RMK A01 T01601072  RH  020%=      5-min Rain = 0
KSB1 122023Z 26015KT 16/M07 A3016 RMK A01 T01581073  RH  020%=      5-min Rain = 0
KSB1 122024Z 26013KT 16/M07 A3016 RMK A01 T01581073  RH  020%=      5-min Rain = 0
KSB1 122025Z 28012KT 16/M07 A3016 RMK A01 T01591069  RH  020%=      5-min Rain = 0
KSB1 122026Z 28012KT 16/M07 A3016 RMK A01 T01601067  RH  020%=      5-min Rain = 0
KSB1 122027Z 28012KT 16/M07 A3016 RMK A01 T01621068  RH  020%=      5-min Rain = 0
KSB1 122028Z 27013KT 16/M07 A3016 RMK A01 T01641069  RH  020%=      5-min Rain = 0
KSB1 122029Z 29012KT 16/M07 A3016 RMK A01 T01631069  RH  020%=      5-min Rain = 0
KSB1 122030Z 28012KT 16/M07 A3016 RMK A01 T01641067  RH  020%=      5-min Rain = 0
KSB1 122031Z 27010KT 17/M07 A3016 RMK A01 T01651068  RH  020%=      5-min Rain = 0
KSB1 122032Z 26013KT 17/M07 A3016 RMK A01 T01651070  RH  019%=      5-min Rain = 0
KSB1 122033Z 25012KT 16/M07 A3016 RMK A01 T01631069  RH  020%=      5-min Rain = 0
KSB1 122034Z 26011KT 16/M07 A3016 RMK A01 T01611069  RH  020%=      5-min Rain = 0
KSB1 122035Z 26012KT 16/M07 A3016 RMK A01 T01601068  RH  020%=      5-min Rain = 0
KSB1 122036Z 26011KT 16/M07 A3016 RMK A01 T01601069  RH  020%=      5-min Rain = 0
KSB1 122037Z 26010KT 16/M07 A3016 RMK A01 T01591068  RH  020%=      5-min Rain = 0
KSB1 122038Z 25010KT 16/M07 A3016 RMK A01 T01591068  RH  020%=      5-min Rain = 0
KSB1 122039Z 26009KT 16/M07 A3016 RMK A01 T01601068  RH  020%=      5-min Rain = 0
KSB1 122040Z 28006KT 16/M07 A3016 RMK A01 T01641065  RH  020%=      5-min Rain = 0
KSB1 122041Z 28008KT 17/M07 A3016 RMK A01 T01651066  RH  020%=      5-min Rain = 0
KSB1 122042Z 26010KT 16/M07 A3016 RMK A01 T01621070  RH  020%=      5-min Rain = 0
KSB1 122043Z 26012KT 16/M07 A3016 RMK A01 T01611068  RH  020%=      5-min Rain = 0
KSB1 122044Z 27009KT 16/M07 A3016 RMK A01 T01601068  RH  020%=      5-min Rain = 0
KSB1 122045Z 28008KT 16/M07 A3016 RMK A01 T01581069  RH  020%=      5-min Rain = 0
KSB1 122046Z 27008KT 16/M07 A3016 RMK A01 T01571069  RH  020%=      5-min Rain = 0
KSB1 122047Z 26005KT 16/M07 A3016 RMK A01 T01581069  RH  020%=      5-min Rain = 0
KSB1 122048Z 26007KT 16/M07 A3016 RMK A01 T01581068  RH  021%=      5-min Rain = 0
KSB1 122049Z 27006KT 16/M07 A3016 RMK A01 T01591068  RH  020%=      5-min Rain = 0
KSB1 122050Z 28005KT 16/M07 A3016 RMK A01 T01581068  RH  020%=      5-min Rain = 0
KSB1 122051Z 26009KT 16/M07 A3016 RMK A01 T01581067  RH  021%=      5-min Rain = 0
KSB1 122052Z 27009KT 16/M07 A3016 RMK A01 T01601066  RH  021%=      5-min Rain = 0
KSB1 122053Z 27008KT 16/M07 A3016 RMK A01 T01621066  RH  020%=      5-min Rain = 0
KSB1 122054Z 26009KT 16/M07 A3016 RMK A01 T01621067  RH  020%=      5-min Rain = 0
KSB1 122055Z 25010KT 16/M07 A3016 RMK A01 T01611068  RH  020%=      5-min Rain = 0
KSB1 122056Z 26009KT 16/M07 A3016 RMK A01 T01611067  RH  020%=      5-min Rain = 0
KSB1 122057Z 24008KT 16/M07 A3016 RMK A01 T01611066  RH  020%=      5-min Rain = 0
KSB1 122058Z 23007KT 16/M07 A3016 RMK A01 T01601068  RH  020%=      5-min Rain = 0
KSB1 122059Z 23006KT 16/M07 A3016 RMK A01 T01591068  RH  020%=      5-min Rain = 0
KSB1 122100Z 25008KT 16/M07 A3016 RMK A01 T01601067  RH  020%=      5-min Rain = 0
KSB1 122101Z 25010KT 16/M06 A3016 RMK A01 T01631064  RH  020%=      5-min Rain = 0
KSB1 122102Z 28009KT 17/M06 A3016 RMK A01 T01651064  RH  020%=      5-min Rain = 0
KSB1 122103Z 28008KT 17/M06 A3016 RMK A01 T01661064  RH  020%=      5-min Rain = 0
KSB1 122104Z 28009KT 17/M06 A3016 RMK A01 T01671063  RH  020%=      5-min Rain = 0
KSB1 122105Z 27009KT 17/M07 A3016 RMK A01 T01681066  RH  020%=      5-min Rain = 0
KSB1 122106Z 26007KT 17/M07 A3016 RMK A01 T01671068  RH  019%=      5-min Rain = 0
KSB1 122107Z 26009KT 17/M07 A3016 RMK A01 T01661066  RH  020%=      5-min Rain = 0
KSB1 122108Z 27009KT 16/M07 A3016 RMK A01 T01641068  RH  020%=      5-min Rain = 0
KSB1 122109Z 27006KT 16/M07 A3016 RMK A01 T01621069  RH  020%=      5-min Rain = 0
KSB1 122110Z 27008KT 16/M07 A3016 RMK A01 T01611067  RH  020%=      5-min Rain = 0
KSB1 122111Z 27008KT 16/M07 A3016 RMK A01 T01621066  RH  020%=      5-min Rain = 0
KSB1 122112Z 26012KT 16/M06 A3015 RMK A01 T01631064  RH  021%=      5-min Rain = 0
KSB1 122113Z 30010G15KT 17/M06 A3016 RMK A01 T01661060  RH  021%=      5-min Rain = 0
KSB1 122114Z 27006KT 17/M06 A3016 RMK A01 T01671061  RH  020%=      5-min Rain = 0
KSB1 122115Z 28009KT 17/M06 A3016 RMK A01 T01671059  RH  021%=      5-min Rain = 0
KSB1 122116Z 27010KT 17/M06 A3015 RMK A01 T01691060  RH  020%=      5-min Rain = 0
KSB1 122117Z 27010KT 17/M06 A3015 RMK A01 T01671060  RH  020%=      5-min Rain = 0
KSB1 122118Z 29007KT 17/M06 A3015 RMK A01 T01661061  RH  021%=      5-min Rain = 0
KSB1 122119Z 30004KT 17/M06 A3015 RMK A01 T01651062  RH  021%=      5-min Rain = 0
KSB1 122120Z 28005KT 16/M06 A3015 RMK A01 T01631062  RH  021%=      5-min Rain = 0
KSB1 122121Z 28004KT 16/M06 A3015 RMK A01 T01621061  RH  021%=      5-min Rain = 0
KSB1 122122Z 31005KT 16/M06 A3015 RMK A01 T01631061  RH  021%=      5-min Rain = 0
KSB1 122123Z 30008KT 17/M06 A3015 RMK A01 T01651060  RH  021%=      5-min Rain = 0
KSB1 122124Z 28011KT 17/M06 A3015 RMK A01 T01661061  RH  020%=      5-min Rain = 0
KSB1 122125Z 27008KT 17/M06 A3015 RMK A01 T01671062  RH  020%=      5-min Rain = 0
KSB1 122126Z 27010KT 17/M06 A3015 RMK A01 T01671060  RH  021%=      5-min Rain = 0
KSB1 122127Z 28009KT 17/M06 A3015 RMK A01 T01671061  RH  020%=      5-min Rain = 0
KSB1 122128Z 26007KT 17/M06 A3015 RMK A01 T01681061  RH  020%=      5-min Rain = 0
KSB1 122129Z 26009KT 17/M06 A3015 RMK A01 T01701060  RH  020%=      5-min Rain = 0
KSB1 122130Z 27010KT 17/M06 A3015 RMK A01 T01701061  RH  020%=      5-min Rain = 0
KSB1 122131Z 27010KT 17/M06 A3015 RMK A01 T01691061  RH  020%=      5-min Rain = 0
KSB1 122132Z 26010KT 17/M06 A3015 RMK A01 T01691060  RH  020%=      5-min Rain = 0
KSB1 122133Z 26010KT 17/M06 A3015 RMK A01 T01691059  RH  020%=      5-min Rain = 0
KSB1 122134Z 25009KT 17/M06 A3015 RMK A01 T01681062  RH  020%=      5-min Rain = 0
KSB1 122135Z 27009KT 17/M06 A3015 RMK A01 T01681061  RH  020%=      5-min Rain = 0
KSB1 122136Z 28008G13KT 17/M06 A3015 RMK A01 T01681060  RH  020%=      5-min Rain = 0
KSB1 122137Z 27009KT 17/M06 A3015 RMK A01 T01671059  RH  021%=      5-min Rain = 0
KSB1 122138Z 26008KT 17/M06 A3015 RMK A01 T01681058  RH  021%=      5-min Rain = 0
KSB1 122139Z 27006KT 17/M06 A3015 RMK A01 T01701058  RH  021%=      5-min Rain = 0
KSB1 122140Z 29008KT 17/M06 A3015 RMK A01 T01721061  RH  020%=      5-min Rain = 0
KSB1 122141Z 31008KT 17/M07 A3015 RMK A01 T01721066  RH  019%=      5-min Rain = 0
KSB1 122142Z 30009KT 17/M06 A3015 RMK A01 T01711064  RH  019%=      5-min Rain = 0
KSB1 122143Z 31006KT 17/M06 A3015 RMK A01 T01731061  RH  020%=      5-min Rain = 0
KSB1 122144Z 32009G14KT 17/M06 A3015 RMK A01 T01741061  RH  019%=      5-min Rain = 0
KSB1 122145Z 31011KT 17/M06 A3015 RMK A01 T01731062  RH  019%=      5-min Rain = 0
KSB1 122146Z 32012KT 17/M06 A3015 RMK A01 T01701061  RH  020%=      5-min Rain = 0
KSB1 122147Z 33010KT 17/M06 A3015 RMK A01 T01671058  RH  021%=      5-min Rain = 0
KSB1 122148Z 33010KT 17/M06 A3015 RMK A01 T01671056  RH  021%=      5-min Rain = 0
KSB1 122149Z 31010KT 17/M06 A3015 RMK A01 T01661056  RH  021%=      5-min Rain = 0
KSB1 122150Z 30007KT 17/M06 A3015 RMK A01 T01671056  RH  021%=      5-min Rain = 0
KSB1 122151Z 31007KT 17/M05 A3015 RMK A01 T01681054  RH  021%=      5-min Rain = 0
KSB1 122152Z 32011KT 17/M05 A3015 RMK A01 T01711053  RH  021%=      5-min Rain = 0
KSB1 122153Z 32009KT 17/M06 A3015 RMK A01 T01701055  RH  021%=      5-min Rain = 0
KSB1 122154Z 32009KT 17/M05 A3015 RMK A01 T01671053  RH  022%=      5-min Rain = 0
KSB1 122155Z 32009KT 17/M05 A3015 RMK A01 T01651054  RH  022%=      5-min Rain = 0
KSB1 122156Z 31008KT 16/M05 A3015 RMK A01 T01641054  RH  022%=      5-min Rain = 0
KSB1 122157Z 31006KT 16/M05 A3015 RMK A01 T01641053  RH  022%=      5-min Rain = 0
KSB1 122158Z 30008KT 17/M05 A3015 RMK A01 T01671051  RH  022%=      5-min Rain = 0
KSB1 122159Z 30009KT 17/M05 A3015 RMK A01 T01691052  RH  022%=      5-min Rain = 0
KSB1 122200Z 28009KT 17/M05 A3015 RMK A01 T01701053  RH  021%=      5-min Rain = 0
KSB1 122201Z 27009KT 17/M05 A3015 RMK A01 T01721053  RH  021%=      5-min Rain = 0
KSB1 122202Z 27008G13KT 17/M05 A3016 RMK A01 T01701054  RH  021%=      5-min Rain = 0
KSB1 122203Z 30007KT 17/M05 A3016 RMK A01 T01681052  RH  022%=      5-min Rain = 0
KSB1 122204Z 29009KT 17/M05 A3016 RMK A01 T01681052  RH  022%=      5-min Rain = 0
KSB1 122205Z 31006KT 17/M05 A3016 RMK A01 T01681051  RH  022%=      5-min Rain = 0
KSB1 122206Z 31008KT 17/M05 A3016 RMK A01 T01681052  RH  022%=      5-min Rain = 0
KSB1 122207Z 30009KT 17/M05 A3016 RMK A01 T01681050  RH  022%=      5-min Rain = 0
KSB1 122208Z 31008KT 17/M05 A3016 RMK A01 T01681050  RH  022%=      5-min Rain = 0
KSB1 122209Z 31009KT 17/M05 A3016 RMK A01 T01681048  RH  022%=      5-min Rain = 0
KSB1 122210Z 29010KT 17/M05 A3016 RMK A01 T01681049  RH  022%=      5-min Rain = 0
KSB1 122211Z 28011KT 17/M05 A3016 RMK A01 T01691052  RH  022%=      5-min Rain = 0
KSB1 122212Z 30008KT 17/M05 A3016 RMK A01 T01681054  RH  021%=      5-min Rain = 0
KSB1 122213Z 32010KT 17/M05 A3016 RMK A01 T01681052  RH  022%=      5-min Rain = 0
KSB1 122214Z 32010KT 17/M05 A3016 RMK A01 T01681052  RH  022%=      5-min Rain = 0
KSB1 122215Z 29008KT 17/M05 A3016 RMK A01 T01681050  RH  022%=      5-min Rain = 0
KSB1 122216Z 27009KT 17/M05 A3016 RMK A01 T01701049  RH  022%=      5-min Rain = 0
KSB1 122217Z 28011KT 17/M05 A3016 RMK A01 T01711053  RH  021%=      5-min Rain = 0
KSB1 122218Z 27011KT 17/M06 A3016 RMK A01 T01701055  RH  021%=      5-min Rain = 0
KSB1 122219Z 29012KT 17/M06 A3016 RMK A01 T01681055  RH  021%=      5-min Rain = 0
KSB1 122220Z 29010KT 17/M06 A3016 RMK A01 T01661057  RH  021%=      5-min Rain = 0
KSB1 122221Z 29010KT 17/M06 A3016 RMK A01 T01651055  RH  022%=      5-min Rain = 0
KSB1 122222Z 29008KT 17/M06 A3016 RMK A01 T01651055  RH  022%=      5-min Rain = 0
KSB1 122223Z 31007KT 17/M05 A3016 RMK A01 T01651053  RH  022%=      5-min Rain = 0
KSB1 122224Z 31011KT 17/M06 A3016 RMK A01 T01661055  RH  021%=      5-min Rain = 0
KSB1 122225Z 31014KT 17/M06 A3016 RMK A01 T01661057  RH  021%=      5-min Rain = 0
KSB1 122226Z 31013KT 16/M06 A3016 RMK A01 T01631057  RH  021%=      5-min Rain = 0
KSB1 122227Z 31011KT 16/M06 A3016 RMK A01 T01631057  RH  022%=      5-min Rain = 0
KSB1 122228Z 32009KT 16/M06 A3017 RMK A01 T01631056  RH  022%=      5-min Rain = 0
KSB1 122229Z 32009KT 16/M05 A3017 RMK A01 T01621054  RH  022%=      5-min Rain = 0
KSB1 122230Z 32010KT 16/M05 A3017 RMK A01 T01621052  RH  023%=      5-min Rain = 0
KSB1 122231Z 30008KT 16/M05 A3017 RMK A01 T01621051  RH  023%=      5-min Rain = 0
KSB1 122232Z 29007KT 16/M05 A3017 RMK A01 T01641051  RH  022%=      5-min Rain = 0
KSB1 122233Z 29007KT 17/M05 A3017 RMK A01 T01651053  RH  022%=      5-min Rain = 0
KSB1 122234Z 31009KT 17/M05 A3017 RMK A01 T01661052  RH  022%=      5-min Rain = 0
KSB1 122235Z 31012KT 17/M05 A3017 RMK A01 T01671052  RH  022%=      5-min Rain = 0
KSB1 122236Z 31011KT 17/M05 A3017 RMK A01 T01651053  RH  022%=      5-min Rain = 0
KSB1 122237Z 30010KT 16/M05 A3017 RMK A01 T01631052  RH  023%=      5-min Rain = 0
KSB1 122238Z 30010KT 16/M05 A3017 RMK A01 T01631053  RH  022%=      5-min Rain = 0
KSB1 122239Z 30009KT 16/M06 A3017 RMK A01 T01621055  RH  022%=      5-min Rain = 0
KSB1 122240Z 31011KT 16/M06 A3017 RMK A01 T01621056  RH  022%=      5-min Rain = 0
KSB1 122241Z 30011KT 16/M06 A3017 RMK A01 T01631056  RH  022%=      5-min Rain = 0
KSB1 122242Z 31011KT 16/M06 A3017 RMK A01 T01631055  RH  022%=      5-min Rain = 0
KSB1 122243Z 31010KT 16/M05 A3017 RMK A01 T01621053  RH  022%=      5-min Rain = 0
KSB1 122244Z 31011KT 16/M05 A3017 RMK A01 T01621053  RH  022%=      5-min Rain = 0
KSB1 122245Z 30009KT 16/M05 A3017 RMK A01 T01611053  RH  023%=      5-min Rain = 0
KSB1 122246Z 31010KT 16/M06 A3017 RMK A01 T01601057  RH  022%=      5-min Rain = 0
KSB1 122247Z 31009KT 16/M06 A3017 RMK A01 T01601060  RH  021%=      5-min Rain = 0
KSB1 122248Z 31008KT 16/M06 A3017 RMK A01 T01611060  RH  021%=      5-min Rain = 0
KSB1 122249Z 31009KT 16/M06 A3017 RMK A01 T01621059  RH  021%=      5-min Rain = 0
KSB1 122250Z 31012KT 16/M06 A3017 RMK A01 T01621056  RH  022%=      5-min Rain = 0
KSB1 122251Z 31009KT 16/M06 A3017 RMK A01 T01611055  RH  022%=      5-min Rain = 0
KSB1 122252Z 31008KT 16/M05 A3017 RMK A01 T01601054  RH  023%=      5-min Rain = 0
KSB1 122253Z 29011KT 16/M05 A3017 RMK A01 T01601054  RH  022%=      5-min Rain = 0
KSB1 122254Z 30007KT 16/M06 A3017 RMK A01 T01601055  RH  022%=      5-min Rain = 0
KSB1 122255Z 31008KT 16/M06 A3017 RMK A01 T01601055  RH  022%=      5-min Rain = 0
KSB1 122256Z 31010KT 16/M05 A3017 RMK A01 T01611054  RH  022%=      5-min Rain = 0
KSB1 122257Z 31009KT 16/M05 A3017 RMK A01 T01601054  RH  022%=      5-min Rain = 0
KSB1 122258Z 30008KT 16/M06 A3017 RMK A01 T01591055  RH  022%=      5-min Rain = 0
KSB1 122259Z 31006KT 16/M05 A3017 RMK A01 T01591054  RH  023%=      5-min Rain = 0
KSB1 122300Z 32008KT 16/M05 A3017 RMK A01 T01601054  RH  022%=      5-min Rain = 0
KSB1 122301Z 32010KT 16/M06 A3017 RMK A01 T01601055  RH  022%=      5-min Rain = 0
KSB1 122302Z 31006KT 16/M06 A3017 RMK A01 T01591055  RH  023%=      5-min Rain = 0
KSB1 122303Z 32007KT 16/M05 A3017 RMK A01 T01581054  RH  023%=      5-min Rain = 0
KSB1 122304Z 32009KT 16/M06 A3017 RMK A01 T01581055  RH  023%=      5-min Rain = 0
KSB1 122305Z 32006KT 16/M06 A3017 RMK A01 T01581056  RH  023%=      5-min Rain = 0
KSB1 122306Z 32006KT 16/M05 A3017 RMK A01 T01581054  RH  023%=      5-min Rain = 0
KSB1 122307Z 31007KT 16/M05 A3017 RMK A01 T01591053  RH  023%=      5-min Rain = 0
KSB1 122308Z 32006KT 16/M05 A3017 RMK A01 T01581054  RH  023%=      5-min Rain = 0
KSB1 122309Z 32009KT 16/M06 A3017 RMK A01 T01591055  RH  023%=      5-min Rain = 0
KSB1 122310Z 32008KT 16/M06 A3017 RMK A01 T01591056  RH  022%=      5-min Rain = 0
KSB1 122311Z 31007KT 16/M06 A3017 RMK A01 T01581055  RH  023%=      5-min Rain = 0
KSB1 122312Z 31007KT 16/M05 A3017 RMK A01 T01591054  RH  023%=      5-min Rain = 0
KSB1 122313Z 32008KT 16/M05 A3017 RMK A01 T01591054  RH  023%=      5-min Rain = 0
KSB1 122314Z 32007KT 16/M05 A3017 RMK A01 T01581054  RH  023%=      5-min Rain = 0
KSB1 122315Z 32008KT 16/M05 A3017 RMK A01 T01581054  RH  023%=      5-min Rain = 0
KSB1 122316Z 32006KT 16/M05 A3017 RMK A01 T01571054  RH  023%=      5-min Rain = 0
KSB1 122317Z 33006KT 16/M06 A3018 RMK A01 T01561055  RH  023%=      5-min Rain = 0
KSB1 122318Z 32008KT 16/M05 A3017 RMK A01 T01561054  RH  023%=      5-min Rain = 0
KSB1 122319Z 31008KT 16/M05 A3018 RMK A01 T01561054  RH  023%=      5-min Rain = 0
KSB1 122320Z 31006KT 16/M05 A3018 RMK A01 T01561054  RH  023%=      5-min Rain = 0
KSB1 122321Z 32007KT 16/M05 A3018 RMK A01 T01561054  RH  023%=      5-min Rain = 0
KSB1 122322Z 33006KT 16/M05 A3018 RMK A01 T01551054  RH  023%=      5-min Rain = 0
KSB1 122323Z 33008KT 15/M05 A3018 RMK A01 T01541054  RH  023%=      5-min Rain = 0
KSB1 122324Z 32007KT 15/M05 A3018 RMK A01 T01531053  RH  024%=      5-min Rain = 0
KSB1 122325Z 32007KT 15/M05 A3018 RMK A01 T01531052  RH  024%=      5-min Rain = 0
KSB1 122326Z 31007KT 15/M05 A3018 RMK A01 T01521052  RH  024%=      5-min Rain = 0
KSB1 122327Z 32008KT 15/M05 A3018 RMK A01 T01531052  RH  024%=      5-min Rain = 0
KSB1 122328Z 31008KT 15/M05 A3018 RMK A01 T01531052  RH  024%=      5-min Rain = 0
KSB1 122329Z 30007KT 15/M05 A3018 RMK A01 T01531052  RH  024%=      5-min Rain = 0
KSB1 122330Z 30007KT 15/M05 A3018 RMK A01 T01541052  RH  024%=      5-min Rain = 0
KSB1 122331Z 31006KT 15/M05 A3018 RMK A01 T01541052  RH  024%=      5-min Rain = 0
KSB1 122332Z 31007KT 15/M05 A3018 RMK A01 T01541052  RH  024%=      5-min Rain = 0
KSB1 122333Z 31008KT 15/M05 A3018 RMK A01 T01541052  RH  024%=      5-min Rain = 0
KSB1 122334Z 30008KT 15/M05 A3018 RMK A01 T01531051  RH  024%=      5-min Rain = 0
KSB1 122335Z 30007KT 15/M05 A3018 RMK A01 T01531051  RH  024%=      5-min Rain = 0
KSB1 122336Z 31008KT 15/M05 A3018 RMK A01 T01531051  RH  024%=      5-min Rain = 0
KSB1 122337Z 31008KT 15/M05 A3018 RMK A01 T01531051  RH  024%=      5-min Rain = 0
KSB1 122338Z 31006KT 15/M05 A3018 RMK A01 T01521051  RH  024%=      5-min Rain = 0
KSB1 122339Z 31006KT 15/M05 A3018 RMK A01 T01511050  RH  024%=      5-min Rain = 0
KSB1 122340Z 31006KT 15/M05 A3018 RMK A01 T01511051  RH  024%=      5-min Rain = 0
KSB1 122341Z 32006KT 15/M05 A3018 RMK A01 T01511051  RH  024%=      5-min Rain = 0
KSB1 122342Z 31007KT 15/M05 A3018 RMK A01 T01511051  RH  024%=      5-min Rain = 0
KSB1 122343Z 32007KT 15/M05 A3018 RMK A01 T01501052  RH  024%=      5-min Rain = 0
KSB1 122344Z 32008KT 15/M05 A3018 RMK A01 T01491052  RH  024%=      5-min Rain = 0
KSB1 122345Z 32008KT 15/M05 A3018 RMK A01 T01481053  RH  025%=      5-min Rain = 0
KSB1 122346Z 32009KT 15/M05 A3018 RMK A01 T01481053  RH  025%=      5-min Rain = 0
KSB1 122347Z 32009KT 15/M05 A3018 RMK A01 T01471054  RH  024%=      5-min Rain = 0
KSB1 122348Z 32007KT 15/M05 A3018 RMK A01 T01471054  RH  024%=      5-min Rain = 0
KSB1 122349Z 32008KT 15/M05 A3018 RMK A01 T01461054  RH  025%=      5-min Rain = 0
KSB1 122350Z 33007KT 15/M05 A3019 RMK A01 T01461054  RH  025%=      5-min Rain = 0
KSB1 122351Z 32007KT 15/M05 A3019 RMK A01 T01451054  RH  025%=      5-min Rain = 0
KSB1 122352Z 32005KT 15/M05 A3019 RMK A01 T01451054  RH  025%=      5-min Rain = 0
KSB1 122353Z 32006KT 14/M05 A3019 RMK A01 T01441054  RH  025%=      5-min Rain = 0
KSB1 122354Z 32006KT 14/M05 A3019 RMK A01 T01441053  RH  025%=      5-min Rain = 0
KSB1 122355Z 31006KT 14/M05 A3019 RMK A01 T01431053  RH  025%=      5-min Rain = 0
KSB1 122356Z 32004KT 14/M05 A3019 RMK A01 T01441052  RH  025%=      5-min Rain = 0
KSB1 122357Z 32006KT 14/M05 A3019 RMK A01 T01441052  RH  025%=      5-min Rain = 0
KSB1 122358Z 31006KT 14/M05 A3019 RMK A01 T01431052  RH  025%=      5-min Rain = 0
KSB1 122359Z 31008KT 14/M05 A3019 RMK A01 T01431051  RH  026%=      5-min Rain = 0
KSB1 130000Z 31007KT 14/M05 A3019 RMK A01 T01431051  RH  026%=      5-min Rain = 0
KSB1 130001Z 31007KT 14/M05 A3019 RMK A01 T01441051  RH  026%=      5-min Rain = 0
KSB1 130002Z 31006KT 14/M05 A3019 RMK A01 T01441051  RH  026%=      5-min Rain = 0
KSB1 130003Z 32007KT 14/M05 A3019 RMK A01 T01441051  RH  026%=      5-min Rain = 0
KSB1 130004Z 31005KT 14/M05 A3019 RMK A01 T01441051  RH  026%=      5-min Rain = 0
KSB1 130005Z 31005KT 14/M05 A3019 RMK A01 T01431051  RH  026%=      5-min Rain = 0
KSB1 130006Z 31006KT 14/M05 A3019 RMK A01 T01431051  RH  026%=      5-min Rain = 0
KSB1 130007Z 31007KT 14/M05 A3019 RMK A01 T01421052  RH  026%=      5-min Rain = 0
KSB1 130008Z 31006KT 14/M05 A3019 RMK A01 T01421054  RH  025%=      5-min Rain = 0
KSB1 130009Z 31007KT 14/M05 A3019 RMK A01 T01421054  RH  025%=      5-min Rain = 0
KSB1 130010Z 31007KT 14/M06 A3019 RMK A01 T01411055  RH  025%=      5-min Rain = 0
KSB1 130011Z 31008KT 14/M06 A3019 RMK A01 T01411056  RH  025%=      5-min Rain = 0
KSB1 130012Z 31007KT 14/M06 A3019 RMK A01 T01401058  RH  025%=      5-min Rain = 0
KSB1 130013Z 30007KT 14/M06 A3019 RMK A01 T01391059  RH  025%=      5-min Rain = 0
KSB1 130014Z 31006KT 14/M06 A3019 RMK A01 T01391059  RH  025%=      5-min Rain = 0
KSB1 130015Z 31008KT 14/M06 A3019 RMK A01 T01381059  RH  025%=      5-min Rain = 0
KSB1 130016Z 31007KT 14/M06 A3019 RMK A01 T01381059  RH  025%=      5-min Rain = 0
KSB1 130017Z 31007KT 14/M06 A3019 RMK A01 T01381059  RH  025%=      5-min Rain = 0
KSB1 130018Z 31008KT 14/M06 A3019 RMK A01 T01371058  RH  025%=      5-min Rain = 0
KSB1 130019Z 31006KT 14/M06 A3019 RMK A01 T01361058  RH  026%=      5-min Rain = 0
KSB1 130020Z 31007KT 14/M06 A3019 RMK A01 T01361057  RH  026%=      5-min Rain = 0
KSB1 130021Z 31008KT 14/M06 A3019 RMK A01 T01351056  RH  026%=      5-min Rain = 0
KSB1 130022Z 31007KT 14/M06 A3019 RMK A01 T01351056  RH  026%=      5-min Rain = 0
KSB1 130023Z 30006KT 14/M06 A3019 RMK A01 T01351055  RH  026%=      5-min Rain = 0
KSB1 130024Z 31006KT 13/M06 A3019 RMK A01 T01341055  RH  026%=      5-min Rain = 0
KSB1 130025Z 30008KT 13/M06 A3019 RMK A01 T01341055  RH  027%=      5-min Rain = 0
KSB1 130026Z 30008KT 13/M06 A3019 RMK A01 T01341055  RH  026%=      5-min Rain = 0
KSB1 130027Z 30008KT 14/M06 A3019 RMK A01 T01351055  RH  026%=      5-min Rain = 0
KSB1 130028Z 30010KT 14/M06 A3019 RMK A01 T01351055  RH  026%=      5-min Rain = 0
KSB1 130029Z 30008KT 14/M06 A3019 RMK A01 T01361055  RH  026%=      5-min Rain = 0
KSB1 130030Z 30007KT 14/M06 A3019 RMK A01 T01371055  RH  026%=      5-min Rain = 0
KSB1 130031Z 30007KT 14/M06 A302 RMK A01 T01351055  RH  026%=      5-min Rain = 0
KSB1 130032Z 28005KT 14/M06 A302 RMK A01 T01351056  RH  026%=      5-min Rain = 0
KSB1 130033Z 30007KT 13/M06 A302 RMK A01 T01341056  RH  026%=      5-min Rain = 0
KSB1 130034Z 30007KT 13/M06 A302 RMK A01 T01341055  RH  026%=      5-min Rain = 0
KSB1 130035Z 30007KT 14/M06 A302 RMK A01 T01351055  RH  026%=      5-min Rain = 0
KSB1 130036Z 29005KT 14/M06 A302 RMK A01 T01351055  RH  026%=      5-min Rain = 0
KSB1 130037Z 27004KT 13/M06 A302 RMK A01 T01331055  RH  027%=      5-min Rain = 0
KSB1 130038Z 29006KT 13/M06 A302 RMK A01 T01321055  RH  027%=      5-min Rain = 0
KSB1 130039Z 30007KT 13/M06 A302 RMK A01 T01311055  RH  027%=      5-min Rain = 0
KSB1 130040Z 26005KT 13/M06 A302 RMK A01 T01311055  RH  027%=      5-min Rain = 0
KSB1 130041Z 29003KT 13/M06 A302 RMK A01 T01311055  RH  027%=      5-min Rain = 0
KSB1 130042Z 33003KT 13/M05 A302 RMK A01 T01321053  RH  027%=      5-min Rain = 0
KSB1 130043Z 32004KT 13/M05 A302 RMK A01 T01321054  RH  027%=      5-min Rain = 0
KSB1 130044Z 28003KT 13/M05 A302 RMK A01 T01321054  RH  027%=      5-min Rain = 0
KSB1 130045Z 26003KT 13/M05 A302 RMK A01 T01321054  RH  027%=      5-min Rain = 0
KSB1 130046Z 24003KT 13/M06 A302 RMK A01 T01321055  RH  027%=      5-min Rain = 0
KSB1 130047Z 25004KT 13/M06 A302 RMK A01 T01301056  RH  027%=      5-min Rain = 0
KSB1 130048Z 23003KT 13/M06 A302 RMK A01 T01281055  RH  027%=      5-min Rain = 0
KSB1 130049Z 24004KT 13/M06 A302 RMK A01 T01271055  RH  028%=      5-min Rain = 0
KSB1 130050Z 24003KT 13/M06 A302 RMK A01 T01261056  RH  028%=      5-min Rain = 0
KSB1 130051Z 23003KT 12/M06 A302 RMK A01 T01231059  RH  028%=      5-min Rain = 0
KSB1 130052Z 25003KT 12/M06 A302 RMK A01 T01191060  RH  028%=      5-min Rain = 0
KSB1 130053Z 26002KT 12/M06 A302 RMK A01 T01151061  RH  029%=      5-min Rain = 0
KSB1 130054Z 26003KT 11/M06 A302 RMK A01 T01131060  RH  029%=      5-min Rain = 0
KSB1 130055Z 26003KT 11/M06 A302 RMK A01 T01121058  RH  030%=      5-min Rain = 0
KSB1 130056Z 27002KT 11/M06 A302 RMK A01 T01121057  RH  030%=      5-min Rain = 0
KSB1 130057Z 26003KT 11/M06 A302 RMK A01 T01121058  RH  030%=      5-min Rain = 0
KSB1 130058Z 25002KT 11/M06 A302 RMK A01 T01111058  RH  030%=      5-min Rain = 0
KSB1 130059Z 26003KT 11/M06 A302 RMK A01 T01111057  RH  030%=      5-min Rain = 0
KSB1 130100Z 26002KT 11/M06 A302 RMK A01 T01101057  RH  030%=      5-min Rain = 0
KSB1 130101Z 25002KT 11/M06 A302 RMK A01 T01101057  RH  031%=      5-min Rain = 0
KSB1 130102Z 25003KT 11/M06 A302 RMK A01 T01111056  RH  031%=      5-min Rain = 0
KSB1 130103Z 25003KT 11/M06 A302 RMK A01 T01121056  RH  030%=      5-min Rain = 0
KSB1 130104Z 29004KT 11/M06 A302 RMK A01 T01121056  RH  030%=      5-min Rain = 0
KSB1 130105Z 26003KT 11/M05 A302 RMK A01 T01121054  RH  031%=      5-min Rain = 0
KSB1 130106Z 26003KT 11/M06 A302 RMK A01 T01121055  RH  031%=      5-min Rain = 0
KSB1 130107Z 26002KT 11/M06 A302 RMK A01 T01101056  RH  031%=      5-min Rain = 0
KSB1 130108Z 27003KT 11/M06 A302 RMK A01 T01091056  RH  031%=      5-min Rain = 0
KSB1 130109Z 29004KT 11/M05 A302 RMK A01 T01091054  RH  031%=      5-min Rain = 0
KSB1 130110Z 28004KT 11/M05 A302 RMK A01 T01111053  RH  031%=      5-min Rain = 0
KSB1 130111Z 27003KT 11/M05 A302 RMK A01 T01121054  RH  031%=      5-min Rain = 0
KSB1 130112Z 28004KT 11/M06 A302 RMK A01 T01111055  RH  031%=      5-min Rain = 0
KSB1 130113Z 28005KT 11/M05 A302 RMK A01 T01131052  RH  031%=      5-min Rain = 0
KSB1 130114Z 27004KT 12/M05 A302 RMK A01 T01151052  RH  031%=      5-min Rain = 0
KSB1 130115Z 26002KT 12/M05 A3021 RMK A01 T01161052  RH  030%=      5-min Rain = 0
KSB1 130116Z 26003KT 12/M05 A3021 RMK A01 T01171053  RH  030%=      5-min Rain = 0
KSB1 130117Z 26004KT 12/M05 A3021 RMK A01 T01151054  RH  030%=      5-min Rain = 0
KSB1 130118Z 25004KT 11/M06 A3021 RMK A01 T01121055  RH  031%=      5-min Rain = 0
KSB1 130119Z 27004KT 11/M06 A3021 RMK A01 T01101055  RH  031%=      5-min Rain = 0
KSB1 130120Z 30004KT 11/M05 A3021 RMK A01 T01091054  RH  031%=      5-min Rain = 0
KSB1 130121Z 29004KT 11/M05 A3021 RMK A01 T01111052  RH  031%=      5-min Rain = 0
KSB1 130122Z 29005KT 11/M05 A3021 RMK A01 T01121052  RH  031%=      5-min Rain = 0
KSB1 130123Z 29005KT 11/M05 A3021 RMK A01 T01141051  RH  031%=      5-min Rain = 0
KSB1 130124Z 28005KT 12/M05 A3021 RMK A01 T01151051  RH  031%=      5-min Rain = 0
KSB1 130125Z 28005KT 12/M05 A3021 RMK A01 T01171050  RH  031%=      5-min Rain = 0
KSB1 130126Z 27005KT 12/M05 A3021 RMK A01 T01181051  RH  030%=      5-min Rain = 0
KSB1 130127Z 27004KT 12/M05 A3021 RMK A01 T01161053  RH  030%=      5-min Rain = 0
KSB1 130128Z 28004KT 12/M05 A3021 RMK A01 T01151053  RH  030%=      5-min Rain = 0
KSB1 130129Z 27004KT 11/M05 A3021 RMK A01 T01131053  RH  031%=      5-min Rain = 0
KSB1 130130Z 27004KT 11/M05 A3021 RMK A01 T01121053  RH  031%=      5-min Rain = 0
KSB1 130131Z 26002KT 11/M05 A3021 RMK A01 T01121052  RH  031%=      5-min Rain = 0
KSB1 130132Z 29004KT 11/M05 A3021 RMK A01 T01121052  RH  031%=      5-min Rain = 0
KSB1 130133Z 29005KT 11/M05 A3021 RMK A01 T01131051  RH  031%=      5-min Rain = 0
KSB1 130134Z 28005KT 12/M05 A3021 RMK A01 T01151051  RH  031%=      5-min Rain = 0
KSB1 130135Z 27004KT 12/M05 A3021 RMK A01 T01151051  RH  031%=      5-min Rain = 0
KSB1 130136Z 27005KT 12/M05 A3021 RMK A01 T01151051  RH  031%=      5-min Rain = 0
KSB1 130137Z 28004KT 11/M05 A3021 RMK A01 T01131051  RH  031%=      5-min Rain = 0
KSB1 130138Z 29004KT 11/M05 A3021 RMK A01 T01141050  RH  031%=      5-min Rain = 0
KSB1 130139Z 28003KT 12/M05 A3021 RMK A01 T01151050  RH  031%=      5-min Rain = 0
KSB1 130140Z 29005KT 12/M05 A3022 RMK A01 T01151050  RH  031%=      5-min Rain = 0
KSB1 130141Z 27005KT 11/M05 A3022 RMK A01 T01141051  RH  031%=      5-min Rain = 0
KSB1 130142Z 27005KT 11/M05 A3022 RMK A01 T01131051  RH  031%=      5-min Rain = 0
KSB1 130143Z 26004KT 11/M05 A3022 RMK A01 T01101052  RH  032%=      5-min Rain = 0
KSB1 130144Z 27005KT 11/M05 A3022 RMK A01 T01091051  RH  032%=      5-min Rain = 0
KSB1 130145Z 28004KT 11/M05 A3022 RMK A01 T01081052  RH  032%=      5-min Rain = 0
KSB1 130146Z 29005KT 11/M05 A3022 RMK A01 T01061052  RH  033%=      5-min Rain = 0
KSB1 130147Z 27003KT 11/M05 A3022 RMK A01 T01051051  RH  033%=      5-min Rain = 0
KSB1 130148Z 27004KT 11/M05 A3022 RMK A01 T01071050  RH  033%=      5-min Rain = 0
KSB1 130149Z 27004KT 11/M05 A3022 RMK A01 T01091050  RH  032%=      5-min Rain = 0
KSB1 130150Z 27005KT 11/M05 A3022 RMK A01 T01091051  RH  032%=      5-min Rain = 0
KSB1 130151Z 29004KT 11/M05 A3022 RMK A01 T01071051  RH  032%=      5-min Rain = 0
KSB1 130152Z 27004KT 11/M05 A3022 RMK A01 T01081050  RH  033%=      5-min Rain = 0
KSB1 130153Z 27005KT 11/M05 A3022 RMK A01 T01101050  RH  032%=      5-min Rain = 0
KSB1 130154Z 27005KT 11/M05 A3022 RMK A01 T01091051  RH  032%=      5-min Rain = 0
KSB1 130155Z 28005KT 11/M05 A3022 RMK A01 T01081051  RH  032%=      5-min Rain = 0
KSB1 130156Z 28004KT 11/M05 A3022 RMK A01 T01061051  RH  033%=      5-min Rain = 0
KSB1 130157Z 27004KT 11/M05 A3022 RMK A01 T01051051  RH  033%=      5-min Rain = 0
KSB1 130158Z 27004KT 10/M05 A3022 RMK A01 T01041051  RH  033%=      5-min Rain = 0
KSB1 130159Z 30004KT 10/M05 A3022 RMK A01 T01041050  RH  033%=      5-min Rain = 0
KSB1 130200Z 29006KT 10/M05 A3022 RMK A01 T01041050  RH  034%=      5-min Rain = 0
KSB1 130201Z 28004KT 11/M05 A3022 RMK A01 T01051049  RH  033%=      5-min Rain = 0
KSB1 130202Z 29005KT 11/M05 A3022 RMK A01 T01071049  RH  033%=      5-min Rain = 0
KSB1 130203Z 30005KT 11/M05 A3022 RMK A01 T01081049  RH  033%=      5-min Rain = 0
KSB1 130204Z 30006KT 11/M05 A3022 RMK A01 T01091048  RH  033%=      5-min Rain = 0
KSB1 130205Z 30006KT 11/M05 A3022 RMK A01 T01121047  RH  032%=      5-min Rain = 0
KSB1 130206Z 30005KT 11/M05 A3022 RMK A01 T01131047  RH  032%=      5-min Rain = 0
KSB1 130207Z 30006KT 11/M05 A3022 RMK A01 T01121048  RH  032%=      5-min Rain = 0
KSB1 130208Z 29005KT 11/M05 A3022 RMK A01 T01121048  RH  032%=      5-min Rain = 0
KSB1 130209Z 28005KT 11/M05 A3022 RMK A01 T01121048  RH  032%=      5-min Rain = 0
KSB1 130210Z 29006KT 11/M05 A3022 RMK A01 T01131048  RH  032%=      5-min Rain = 0
KSB1 130211Z 29006KT 11/M05 A3022 RMK A01 T01131048  RH  032%=      5-min Rain = 0
KSB1 130212Z 30004KT 11/M05 A3022 RMK A01 T01131048  RH  032%=      5-min Rain = 0
KSB1 130213Z 34002KT 11/M05 A3022 RMK A01 T01131048  RH  032%=      5-min Rain = 0
KSB1 130214Z 31004KT 11/M05 A3022 RMK A01 T01141048  RH  032%=      5-min Rain = 0
KSB1 130215Z 30006KT 11/M05 A3022 RMK A01 T01141048  RH  032%=      5-min Rain = 0
KSB1 130216Z 29006KT 12/M05 A3022 RMK A01 T01151047  RH  032%=      5-min Rain = 0
KSB1 130217Z 29006KT 12/M05 A3022 RMK A01 T01161047  RH  032%=      5-min Rain = 0
KSB1 130218Z 29005KT 12/M05 A3022 RMK A01 T01171047  RH  032%=      5-min Rain = 0
KSB1 130219Z 30006KT 12/M05 A3023 RMK A01 T01161048  RH  032%=      5-min Rain = 0
KSB1 130220Z 29006KT 12/M05 A3023 RMK A01 T01151047  RH  032%=      5-min Rain = 0
KSB1 130221Z 29004KT 12/M05 A3022 RMK A01 T01151047  RH  032%=      5-min Rain = 0
KSB1 130222Z 28005KT 12/M05 A3023 RMK A01 T01151047  RH  032%=      5-min Rain = 0
KSB1 130223Z 28008KT 12/M05 A3022 RMK A01 T01161046  RH  032%=      5-min Rain = 0
KSB1 130224Z 29006KT 12/M05 A3023 RMK A01 T01181046  RH  031%=      5-min Rain = 0
KSB1 130225Z 29005KT 12/M05 A3023 RMK A01 T01191047  RH  031%=      5-min Rain = 0
KSB1 130226Z 29005KT 12/M05 A3023 RMK A01 T01181047  RH  031%=      5-min Rain = 0
KSB1 130227Z 30004KT 12/M05 A3023 RMK A01 T01161047  RH  032%=      5-min Rain = 0
KSB1 130228Z 30005KT 11/M05 A3023 RMK A01 T01141048  RH  032%=      5-min Rain = 0
KSB1 130229Z 29007KT 11/M05 A3023 RMK A01 T01131048  RH  032%=      5-min Rain = 0
KSB1 130230Z 29006KT 11/M05 A3023 RMK A01 T01131047  RH  032%=      5-min Rain = 0
KSB1 130231Z 29006KT 11/M05 A3023 RMK A01 T01111048  RH  033%=      5-min Rain = 0
KSB1 130232Z 29007KT 11/M05 A3023 RMK A01 T01091048  RH  033%=      5-min Rain = 0
KSB1 130233Z 29007KT 11/M05 A3023 RMK A01 T01081047  RH  033%=      5-min Rain = 0
KSB1 130234Z 29007KT 11/M05 A3023 RMK A01 T01081048  RH  033%=      5-min Rain = 0
KSB1 130235Z 30007KT 11/M05 A3023 RMK A01 T01071047  RH  033%=      5-min Rain = 0
KSB1 130236Z 30008KT 11/M05 A3023 RMK A01 T01071047  RH  034%=      5-min Rain = 0
KSB1 130237Z 30008KT 11/M05 A3023 RMK A01 T01081047  RH  033%=      5-min Rain = 0
KSB1 130238Z 30008KT 11/M05 A3023 RMK A01 T01091047  RH  033%=      5-min Rain = 0
KSB1 130239Z 30008KT 11/M05 A3023 RMK A01 T01101047  RH  033%=      5-min Rain = 0
KSB1 130240Z 30009KT 11/M05 A3023 RMK A01 T01101047  RH  033%=      5-min Rain = 0
KSB1 130241Z 29008KT 11/M05 A3023 RMK A01 T01111046  RH  033%=      5-min Rain = 0
KSB1 130242Z 29008KT 11/M05 A3023 RMK A01 T01121047  RH  033%=      5-min Rain = 0
KSB1 130243Z 29009KT 11/M05 A3023 RMK A01 T01121047  RH  033%=      5-min Rain = 0
KSB1 130244Z 29008KT 11/M05 A3023 RMK A01 T01121047  RH  033%=      5-min Rain = 0
KSB1 130245Z 29008KT 11/M05 A3023 RMK A01 T01121047  RH  033%=      5-min Rain = 0
KSB1 130246Z 29008KT 11/M05 A3023 RMK A01 T01111047  RH  033%=      5-min Rain = 0
KSB1 130247Z 29009KT 11/M05 A3023 RMK A01 T01111047  RH  033%=      5-min Rain = 0
KSB1 130248Z 29008KT 11/M05 A3023 RMK A01 T01121047  RH  032%=      5-min Rain = 0
KSB1 130249Z 29009KT 11/M05 A3023 RMK A01 T01131046  RH  032%=      5-min Rain = 0
KSB1 130250Z 29009KT 11/M05 A3023 RMK A01 T01121047  RH  032%=      5-min Rain = 0
KSB1 130251Z 28008KT 11/M05 A3023 RMK A01 T01121047  RH  033%=      5-min Rain = 0
KSB1 130252Z 28008KT 11/M05 A3023 RMK A01 T01101047  RH  033%=      5-min Rain = 0
KSB1 130253Z 28008KT 11/M05 A3023 RMK A01 T01091048  RH  033%=      5-min Rain = 0
KSB1 130254Z 28008KT 11/M05 A3023 RMK A01 T01071048  RH  033%=      5-min Rain = 0
KSB1 130255Z 28008KT 11/M05 A3023 RMK A01 T01051048  RH  034%=      5-min Rain = 0
KSB1 130256Z 28007KT 10/M05 A3023 RMK A01 T01041048  RH  034%=      5-min Rain = 0
KSB1 130257Z 28008KT 10/M05 A3023 RMK A01 T01031048  RH  034%=      5-min Rain = 0
KSB1 130258Z 28008KT 10/M05 A3023 RMK A01 T01021048  RH  034%=      5-min Rain = 0
KSB1 130259Z 28009KT 10/M05 A3023 RMK A01 T01011048  RH  035%=      5-min Rain = 0
KSB1 130300Z 28009KT 10/M05 A3023 RMK A01 T01011047  RH  035%=      5-min Rain = 0
KSB1 130301Z 28009KT 10/M05 A3024 RMK A01 T01021047  RH  035%=      5-min Rain = 0
KSB1 130302Z 28009KT 10/M05 A3024 RMK A01 T01021047  RH  034%=      5-min Rain = 0
KSB1 130303Z 28010KT 10/M05 A3024 RMK A01 T01031047  RH  035%=      5-min Rain = 0
KSB1 130304Z 28009KT 10/M05 A3024 RMK A01 T01031047  RH  034%=      5-min Rain = 0
KSB1 130305Z 28009KT 10/M05 A3024 RMK A01 T01041047  RH  034%=      5-min Rain = 0
KSB1 130306Z 28009KT 10/M05 A3024 RMK A01 T01041047  RH  034%=      5-min Rain = 0
KSB1 130307Z 28011KT 11/M05 A3024 RMK A01 T01051047  RH  034%=      5-min Rain = 0
KSB1 130308Z 28011KT 11/M05 A3024 RMK A01 T01051046  RH  034%=      5-min Rain = 0
KSB1 130309Z 28010KT 11/M05 A3024 RMK A01 T01081046  RH  034%=      5-min Rain = 0
KSB1 130310Z 28011KT 11/M05 A3024 RMK A01 T01081047  RH  034%=      5-min Rain = 0
KSB1 130311Z 28011KT 11/M05 A3024 RMK A01 T01071046  RH  034%=      5-min Rain = 0
KSB1 130312Z 28010KT 11/M05 A3024 RMK A01 T01081046  RH  034%=      5-min Rain = 0
KSB1 130313Z 28011KT 11/M05 A3024 RMK A01 T01091046  RH  033%=      5-min Rain = 0
KSB1 130314Z 28010KT 11/M05 A3024 RMK A01 T01081046  RH  033%=      5-min Rain = 0
KSB1 130315Z 28011KT 11/M05 A3024 RMK A01 T01081046  RH  034%=      5-min Rain = 0
KSB1 130316Z 28012KT 11/M05 A3024 RMK A01 T01091046  RH  033%=      5-min Rain = 0
KSB1 130317Z 28012KT 11/M05 A3024 RMK A01 T01101045  RH  033%=      5-min Rain = 0
KSB1 130318Z 28013KT 11/M05 A3024 RMK A01 T01121045  RH  033%=      5-min Rain = 0
KSB1 130319Z 28012KT 11/M05 A3024 RMK A01 T01131045  RH  033%=      5-min Rain = 0
KSB1 130320Z 28012KT 11/M05 A3024 RMK A01 T01131046  RH  033%=      5-min Rain = 0
KSB1 130321Z 28012KT 11/M05 A3024 RMK A01 T01131046  RH  033%=      5-min Rain = 0
KSB1 130322Z 28011KT 11/M05 A3024 RMK A01 T01131046  RH  033%=      5-min Rain = 0
KSB1 130323Z 29011KT 11/M05 A3024 RMK A01 T01131046  RH  032%=      5-min Rain = 0
KSB1 130324Z 29009KT 11/M05 A3025 RMK A01 T01131045  RH  033%=      5-min Rain = 0
KSB1 130325Z 29010KT 11/M05 A3025 RMK A01 T01111046  RH  033%=      5-min Rain = 0
KSB1 130326Z 29011KT 11/M05 A3025 RMK A01 T01101046  RH  033%=      5-min Rain = 0
KSB1 130327Z 29010KT 11/M05 A3025 RMK A01 T01101045  RH  033%=      5-min Rain = 0
KSB1 130328Z 29010KT 11/M05 A3025 RMK A01 T01101045  RH  033%=      5-min Rain = 0
KSB1 130329Z 29010KT 11/M05 A3025 RMK A01 T01101045  RH  033%=      5-min Rain = 0
KSB1 130330Z 29011KT 11/M05 A3025 RMK A01 T01111045  RH  033%=      5-min Rain = 0
KSB1 130331Z 29011KT 11/M05 A3025 RMK A01 T01121045  RH  033%=      5-min Rain = 0
KSB1 130332Z 30010KT 11/M05 A3025 RMK A01 T01131045  RH  033%=      5-min Rain = 0
KSB1 130333Z 30009KT 11/M05 A3025 RMK A01 T01141045  RH  033%=      5-min Rain = 0
KSB1 130334Z 30009KT 11/M05 A3025 RMK A01 T01131045  RH  033%=      5-min Rain = 0
KSB1 130335Z 30009KT 11/M05 A3025 RMK A01 T01121045  RH  033%=      5-min Rain = 0
KSB1 130336Z 30009KT 11/M05 A3025 RMK A01 T01121045  RH  033%=      5-min Rain = 0
KSB1 130337Z 30009KT 11/M05 A3025 RMK A01 T01121045  RH  033%=      5-min Rain = 0
KSB1 130338Z 30010KT 11/M05 A3026 RMK A01 T01121045  RH  033%=      5-min Rain = 0
KSB1 130339Z 30009KT 11/M05 A3026 RMK A01 T01121045  RH  033%=      5-min Rain = 0
KSB1 130340Z 31009KT 11/M05 A3026 RMK A01 T01131045  RH  033%=      5-min Rain = 0
KSB1 130341Z 31010KT 11/M05 A3026 RMK A01 T01121045  RH  033%=      5-min Rain = 0
KSB1 130342Z 31009KT 11/M05 A3026 RMK A01 T01111045  RH  033%=      5-min Rain = 0
KSB1 130343Z 31008KT 11/M05 A3026 RMK A01 T01111045  RH  033%=      5-min Rain = 0
KSB1 130344Z 31007KT 11/M05 A3026 RMK A01 T01111045  RH  033%=      5-min Rain = 0
KSB1 130345Z 32007KT 11/M05 A3026 RMK A01 T01111045  RH  033%=      5-min Rain = 0
KSB1 130346Z 32006KT 11/M05 A3026 RMK A01 T01111045  RH  033%=      5-min Rain = 0
KSB1 130347Z 32006KT 11/M05 A3026 RMK A01 T01101045  RH  033%=      5-min Rain = 0
KSB1 130348Z 31005KT 11/M05 A3026 RMK A01 T01091046  RH  033%=      5-min Rain = 0
KSB1 130349Z 31005KT 11/M05 A3026 RMK A01 T01081046  RH  034%=      5-min Rain = 0
KSB1 130350Z 31004KT 11/M05 A3026 RMK A01 T01081046  RH  034%=      5-min Rain = 0
KSB1 130351Z 32002KT 11/M05 A3026 RMK A01 T01071047  RH  034%=      5-min Rain = 0
KSB1 130352Z 03001KT 10/M05 A3026 RMK A01 T01001053  RH  034%=      5-min Rain = 0
KSB1 130353Z 04003KT 09/M05 A3026 RMK A01 T00921054  RH  035%=      5-min Rain = 0
KSB1 130354Z 04002KT 09/M06 A3026 RMK A01 T00861055  RH  037%=      5-min Rain = 0
KSB1 130355Z 01001KT 08/M05 A3026 RMK A01 T00821054  RH  038%=      5-min Rain = 0
KSB1 130356Z 01001KT 08/M05 A3026 RMK A01 T00801053  RH  038%=      5-min Rain = 0
KSB1 130357Z 01001KT 08/M05 A3026 RMK A01 T00791053  RH  039%=      5-min Rain = 0
KSB1 130358Z 28000KT 08/M05 A3026 RMK A01 T00771053  RH  039%=      5-min Rain = 0
KSB1 130359Z 30002KT 08/M05 A3026 RMK A01 T00771052  RH  040%=      5-min Rain = 0
KSB1 130400Z 30002KT 08/M05 A3026 RMK A01 T00781050  RH  040%=      5-min Rain = 0
KSB1 130401Z 33003KT 08/M05 A3026 RMK A01 T00801049  RH  039%=      5-min Rain = 0
KSB1 130402Z 30003KT 09/M05 A3026 RMK A01 T00851048  RH  039%=      5-min Rain = 0
KSB1 130403Z 31003KT 09/M05 A3026 RMK A01 T00901047  RH  038%=      5-min Rain = 0
KSB1 130404Z 28003KT 10/M05 A3026 RMK A01 T00951046  RH  037%=      5-min Rain = 0
KSB1 130405Z 29005KT 10/M05 A3026 RMK A01 T00961047  RH  036%=      5-min Rain = 0
KSB1 130406Z 29003KT 10/M05 A3026 RMK A01 T00971047  RH  036%=      5-min Rain = 0
KSB1 130407Z 33001KT 10/M05 A3026 RMK A01 T00961049  RH  036%=      5-min Rain = 0
KSB1 130408Z 33002KT 09/M05 A3026 RMK A01 T00911052  RH  036%=      5-min Rain = 0
KSB1 130409Z 34002KT 09/M05 A3026 RMK A01 T00871052  RH  037%=      5-min Rain = 0
KSB1 130410Z 31003KT 09/M05 A3026 RMK A01 T00851051  RH  038%=      5-min Rain = 0
KSB1 130411Z 29007KT 09/M05 A3026 RMK A01 T00861051  RH  037%=      5-min Rain = 0
KSB1 130412Z 28006KT 09/M05 A3026 RMK A01 T00931049  RH  036%=      5-min Rain = 0
KSB1 130413Z 30006KT 10/M05 A3026 RMK A01 T00981048  RH  035%=      5-min Rain = 0
KSB1 130414Z 29006KT 10/M05 A3026 RMK A01 T01001048  RH  035%=      5-min Rain = 0
KSB1 130415Z 28007KT 10/M05 A3026 RMK A01 T01011049  RH  034%=      5-min Rain = 0
KSB1 130416Z 27008KT 10/M05 A3026 RMK A01 T01011049  RH  035%=      5-min Rain = 0
KSB1 130417Z 28008KT 10/M05 A3026 RMK A01 T00981049  RH  035%=      5-min Rain = 0
KSB1 130418Z 28008KT 10/M05 A3026 RMK A01 T00961049  RH  036%=      5-min Rain = 0
KSB1 130419Z 28008KT 09/M05 A3026 RMK A01 T00941049  RH  036%=      5-min Rain = 0
KSB1 130420Z 28008KT 09/M05 A3026 RMK A01 T00941049  RH  036%=      5-min Rain = 0
KSB1 130421Z 28008KT 09/M05 A3026 RMK A01 T00941049  RH  036%=      5-min Rain = 0
KSB1 130422Z 28008KT 09/M05 A3026 RMK A01 T00941049  RH  036%=      5-min Rain = 0
KSB1 130423Z 28007KT 09/M05 A3026 RMK A01 T00941050  RH  036%=      5-min Rain = 0
KSB1 130424Z 27008KT 09/M05 A3026 RMK A01 T00941050  RH  036%=      5-min Rain = 0
KSB1 130425Z 28008KT 09/M05 A3026 RMK A01 T00931051  RH  036%=      5-min Rain = 0
KSB1 130426Z 27007KT 09/M05 A3026 RMK A01 T00921051  RH  036%=      5-min Rain = 0
KSB1 130427Z 27007KT 09/M05 A3026 RMK A01 T00911051  RH  036%=      5-min Rain = 0
KSB1 130428Z 28007KT 09/M05 A3026 RMK A01 T00901051  RH  036%=      5-min Rain = 0
KSB1 130429Z 28007KT 09/M05 A3027 RMK A01 T00901051  RH  037%=      5-min Rain = 0
KSB1 130430Z 28006KT 09/M05 A3027 RMK A01 T00891051  RH  037%=      5-min Rain = 0
KSB1 130431Z 31003KT 09/M05 A3027 RMK A01 T00891051  RH  037%=      5-min Rain = 0
KSB1 130432Z 34002KT 09/M05 A3027 RMK A01 T00881052  RH  037%=      5-min Rain = 0
KSB1 130433Z 05002KT 09/M05 A3027 RMK A01 T00891054  RH  036%=      5-min Rain = 0
KSB1 130434Z 08004KT 09/M06 A3027 RMK A01 T00921055  RH  035%=      5-min Rain = 0
KSB1 130435Z 08007KT 08/M07 A3027 RMK A01 T00811065  RH  035%=      5-min Rain = 0
KSB1 130436Z 08007KT 06/M07 A3028 RMK A01 T00621070  RH  038%=      5-min Rain = 0
KSB1 130437Z 07007KT 05/M07 A3028 RMK A01 T00511067  RH  042%=      5-min Rain = 0
KSB1 130438Z 07006KT 05/M06 A3028 RMK A01 T00481064  RH  044%=      5-min Rain = 0
KSB1 130439Z 06005KT 05/M06 A3028 RMK A01 T00471062  RH  045%=      5-min Rain = 0
KSB1 130440Z 06004KT 05/M06 A3028 RMK A01 T00451062  RH  046%=      5-min Rain = 0
KSB1 130441Z 06003KT 04/M06 A3028 RMK A01 T00441061  RH  046%=      5-min Rain = 0
KSB1 130442Z 04005KT 04/M06 A3028 RMK A01 T00441061  RH  046%=      5-min Rain = 0
KSB1 130443Z 03005KT 04/M06 A3028 RMK A01 T00441061  RH  047%=      5-min Rain = 0
KSB1 130444Z 02004KT 05/M06 A3028 RMK A01 T00451058  RH  047%=      5-min Rain = 0
KSB1 130445Z 02003KT 05/M06 A3028 RMK A01 T00461057  RH  047%=      5-min Rain = 0
KSB1 130446Z 02003KT 05/M05 A3028 RMK A01 T00501054  RH  047%=      5-min Rain = 0
KSB1 130447Z 00002KT 06/M05 A3028 RMK A01 T00561053  RH  045%=      5-min Rain = 0
KSB1 130448Z 33002KT 06/M05 A3028 RMK A01 T00611054  RH  044%=      5-min Rain = 0
KSB1 130449Z 32002KT 06/M06 A3028 RMK A01 T00621055  RH  043%=      5-min Rain = 0
KSB1 130450Z 32002KT 06/M06 A3028 RMK A01 T00611056  RH  043%=      5-min Rain = 0
KSB1 130451Z 33003KT 06/M06 A3028 RMK A01 T00611055  RH  043%=      5-min Rain = 0
KSB1 130452Z 35002KT 06/M06 A3028 RMK A01 T00611055  RH  043%=      5-min Rain = 0
KSB1 130453Z 35002KT 06/M05 A3028 RMK A01 T00631054  RH  043%=      5-min Rain = 0
KSB1 130454Z 33002KT 07/M05 A3028 RMK A01 T00691053  RH  041%=      5-min Rain = 0
KSB1 130455Z 34002KT 08/M05 A3028 RMK A01 T00751053  RH  040%=      5-min Rain = 0
KSB1 130456Z 35004KT 08/M05 A3028 RMK A01 T00781054  RH  039%=      5-min Rain = 0
KSB1 130457Z 01003KT 08/M06 A3028 RMK A01 T00781055  RH  038%=      5-min Rain = 0
KSB1 130458Z 01003KT 07/M06 A3028 RMK A01 T00681060  RH  039%=      5-min Rain = 0
KSB1 130459Z 00004KT 06/M06 A3028 RMK A01 T00591060  RH  042%=      5-min Rain = 0
KSB1 130500Z 02004KT 05/M06 A3028 RMK A01 T00541059  RH  044%=      5-min Rain = 0
KSB1 130501Z 36005KT 05/M06 A3028 RMK A01 T00511058  RH  045%=      5-min Rain = 0
KSB1 130502Z 01005KT 05/M06 A3028 RMK A01 T00491057  RH  046%=      5-min Rain = 0
KSB1 130503Z 00005KT 05/M06 A3028 RMK A01 T00471058  RH  046%=      5-min Rain = 0
KSB1 130504Z 01006KT 04/M06 A3028 RMK A01 T00441059  RH  047%=      5-min Rain = 0
KSB1 130505Z 03006KT 04/M06 A3029 RMK A01 T00421059  RH  048%=      5-min Rain = 0
KSB1 130506Z 05006KT 04/M06 A3029 RMK A01 T00411059  RH  048%=      5-min Rain = 0
KSB1 130507Z 06005KT 04/M06 A3029 RMK A01 T00391059  RH  049%=      5-min Rain = 0
KSB1 130508Z 06005KT 04/M06 A3029 RMK A01 T00371059  RH  049%=      5-min Rain = 0
KSB1 130509Z 05005KT 04/M06 A3029 RMK A01 T00361058  RH  050%=      5-min Rain = 0
KSB1 130510Z 05004KT 04/M06 A3029 RMK A01 T00361058  RH  050%=      5-min Rain = 0
KSB1 130511Z 05005KT 04/M06 A3029 RMK A01 T00371058  RH  050%=      5-min Rain = 0
KSB1 130512Z 05005KT 04/M06 A3029 RMK A01 T00391057  RH  049%=      5-min Rain = 0
KSB1 130513Z 05005KT 04/M06 A3029 RMK A01 T00401058  RH  049%=      5-min Rain = 0
KSB1 130514Z 05005KT 04/M06 A303 RMK A01 T00401058  RH  049%=      5-min Rain = 0
KSB1 130515Z 04005KT 04/M06 A303 RMK A01 T00401058  RH  049%=      5-min Rain = 0
KSB1 130516Z 04004KT 04/M06 A303 RMK A01 T00411057  RH  049%=      5-min Rain = 0
KSB1 130517Z 04004KT 04/M06 A303 RMK A01 T00411057  RH  049%=      5-min Rain = 0
KSB1 130518Z 05005KT 04/M06 A303 RMK A01 T00411057  RH  049%=      5-min Rain = 0
KSB1 130519Z 05005KT 04/M06 A303 RMK A01 T00421057  RH  049%=      5-min Rain = 0
KSB1 130520Z 04005KT 04/M06 A303 RMK A01 T00411057  RH  049%=      5-min Rain = 0
KSB1 130521Z 04006KT 04/M06 A303 RMK A01 T00411057  RH  049%=      5-min Rain = 0
KSB1 130522Z 05006KT 04/M06 A303 RMK A01 T00401058  RH  049%=      5-min Rain = 0
KSB1 130523Z 04005KT 04/M06 A303 RMK A01 T00381058  RH  049%=      5-min Rain = 0
KSB1 130524Z 02004KT 04/M06 A303 RMK A01 T00371059  RH  050%=      5-min Rain = 0
KSB1 130525Z 01004KT 04/M06 A303 RMK A01 T00361058  RH  050%=      5-min Rain = 0
KSB1 130526Z 01004KT 04/M06 A303 RMK A01 T00361058  RH  050%=      5-min Rain = 0
KSB1 130527Z 01004KT 04/M06 A303 RMK A01 T00361057  RH  051%=      5-min Rain = 0
KSB1 130528Z 01004KT 04/M06 A3031 RMK A01 T00371056  RH  050%=      5-min Rain = 0
KSB1 130529Z 01004KT 04/M06 A3031 RMK A01 T00391056  RH  050%=      5-min Rain = 0
KSB1 130530Z 01003KT 04/M06 A3031 RMK A01 T00411055  RH  050%=      5-min Rain = 0
KSB1 130531Z 00003KT 04/M05 A3031 RMK A01 T00431054  RH  049%=      5-min Rain = 0
KSB1 130532Z 00004KT 05/M05 A3031 RMK A01 T00451054  RH  048%=      5-min Rain = 0
KSB1 130533Z 02003KT 05/M05 A3031 RMK A01 T00471054  RH  048%=      5-min Rain = 0
KSB1 130534Z 02003KT 05/M05 A3031 RMK A01 T00491054  RH  047%=      5-min Rain = 0
KSB1 130535Z 02004KT 05/M05 A3031 RMK A01 T00501054  RH  047%=      5-min Rain = 0
KSB1 130536Z 02003KT 05/M05 A3031 RMK A01 T00521053  RH  047%=      5-min Rain = 0
KSB1 130537Z 03005KT 05/M05 A3031 RMK A01 T00531053  RH  046%=      5-min Rain = 0
KSB1 130538Z 03004KT 05/M05 A3031 RMK A01 T00541053  RH  046%=      5-min Rain = 0
KSB1 130539Z 02003KT 05/M05 A3031 RMK A01 T00541053  RH  046%=      5-min Rain = 0
KSB1 130540Z 03002KT 06/M05 A3031 RMK A01 T00561053  RH  045%=      5-min Rain = 0
KSB1 130541Z 03002KT 06/M05 A3031 RMK A01 T00561053  RH  045%=      5-min Rain = 0
KSB1 130542Z 02002KT 06/M05 A3031 RMK A01 T00571053  RH  045%=      5-min Rain = 0
KSB1 130543Z 02002KT 06/M05 A3031 RMK A01 T00581054  RH  045%=      5-min Rain = 0
KSB1 130544Z 05003KT 06/M05 A3031 RMK A01 T00591053  RH  044%=      5-min Rain = 0
KSB1 130545Z 04004KT 06/M05 A3031 RMK A01 T00601053  RH  044%=      5-min Rain = 0
KSB1 130546Z 03003KT 06/M05 A3031 RMK A01 T00611053  RH  044%=      5-min Rain = 0
KSB1 130547Z 02003KT 06/M05 A3031 RMK A01 T00621053  RH  044%=      5-min Rain = 0
KSB1 130548Z 00003KT 06/M05 A3031 RMK A01 T00621053  RH  043%=      5-min Rain = 0
KSB1 130549Z 01003KT 06/M05 A3032 RMK A01 T00621054  RH  043%=      5-min Rain = 0
KSB1 130550Z 35002KT 06/M05 A3032 RMK A01 T00621054  RH  043%=      5-min Rain = 0
KSB1 130551Z 31002KT 06/M05 A3032 RMK A01 T00621054  RH  043%=      5-min Rain = 0
KSB1 130552Z 29004KT 06/M06 A3032 RMK A01 T00581057  RH  043%=      5-min Rain = 0
KSB1 130553Z 30003KT 05/M06 A3032 RMK A01 T00541057  RH  044%=      5-min Rain = 0
KSB1 130554Z 31003KT 05/M06 A3032 RMK A01 T00521057  RH  045%=      5-min Rain = 0
KSB1 130555Z 29002KT 05/M06 A3032 RMK A01 T00531055  RH  046%=      5-min Rain = 0
KSB1 130556Z 28002KT 06/M05 A3032 RMK A01 T00551054  RH  045%=      5-min Rain = 0
KSB1 130557Z 30002KT 06/M05 A3032 RMK A01 T00561054  RH  045%=      5-min Rain = 0
KSB1 130558Z 29000KT 06/M05 A3032 RMK A01 T00571054  RH  044%=      5-min Rain = 0
KSB1 130559Z 32001KT 06/M05 A3032 RMK A01 T00591054  RH  044%=      5-min Rain = 0

Page generated in 0.1248 seconds.